Wetterdaten: Sonntag, 16.06.2013
Datum Zeit Temp. Aussen +5cm Feuchte Auss Luftdruck Regen Sonnenschein Regendauer UV Solar Windben
16.06.2013 00:00 14,5 C 12,3 C 69 % 1014,1 hPa 0,0 l/m 0 min 0 min 0,0 UV-I 0 W/m 0,0 km/h (0 Bft)
16.06.2013 00:02 14,5 C 12,9 C 69 % 1014,1 hPa 0,0 l/m 0 min 0 min 0,0 UV-I 0 W/m 2,6 km/h (1 Bft)
16.06.2013 00:05 14,5 C 12,9 C 69 % 1014,1 hPa 0,0 l/m 0 min 0 min 0,0 UV-I 0 W/m 0,0 km/h (0 Bft)
16.06.2013 00:06 14,4 C 12,9 C 69 % 1014,1 hPa 0,0 l/m 0 min 0 min 0,0 UV-I 0 W/m 0,0 km/h (0 Bft)
16.06.2013 00:08 14,4 C 12,9 C 69 % 1014,1 hPa 0,0 l/m 0 min 0 min 0,0 UV-I 0 W/m 0,0 km/h (0 Bft)
16.06.2013 00:10 14,4 C 12,9 C 70 % 1014,1 hPa 0,0 l/m 0 min 0 min 0,0 UV-I 0 W/m 2,6 km/h (1 Bft)
16.06.2013 00:12 14,4 C 12,9 C 70 % 1014,1 hPa 0,0 l/m 0 min 0 min 0,0 UV-I 0 W/m 0,0 km/h (0 Bft)
16.06.2013 00:14 14,4 C 13,4 C 70 % 1014,1 hPa 0,0 l/m 0 min 0 min 0,0 UV-I 0 W/m 2,6 km/h (1 Bft)
16.06.2013 00:16 14,4 C 13,4 C 70 % 1014,1 hPa 0,0 l/m 0 min 0 min 0,0 UV-I 0 W/m 0,0 km/h (0 Bft)
16.06.2013 00:18 14,4 C 12,9 C 70 % 1014,2 hPa 0,0 l/m 0 min 0 min 0,0 UV-I 0 W/m 0,0 km/h (0 Bft)
16.06.2013 00:20 14,4 C 12,9 C 70 % 1014,2 hPa 0,0 l/m 0 min 0 min 0,0 UV-I 0 W/m 2,6 km/h (1 Bft)
16.06.2013 00:22 14,4 C 12,9 C 70 % 1014,2 hPa 0,0 l/m 0 min 0 min 0,0 UV-I 0 W/m 0,0 km/h (0 Bft)
16.06.2013 00:24 14,4 C 12,9 C 70 % 1014,2 hPa 0,0 l/m 0 min 0 min 0,0 UV-I 0 W/m 0,0 km/h (0 Bft)
16.06.2013 00:26 14,4 C 12,9 C 70 % 1014,2 hPa 0,0 l/m 0 min 0 min 0,0 UV-I 0 W/m 0,0 km/h (0 Bft)
16.06.2013 00:28 14,4 C 13,4 C 70 % 1014,3 hPa 0,0 l/m 0 min 0 min 0,0 UV-I 0 W/m 7,7 km/h (2 Bft)
16.06.2013 00:30 14,4 C 13,4 C 70 % 1014,2 hPa 0,0 l/m 0 min 0 min 0,0 UV-I 0 W/m 0,0 km/h (0 Bft)
16.06.2013 00:32 14,4 C 13,4 C 70 % 1014,2 hPa 0,0 l/m 0 min 0 min 0,0 UV-I 0 W/m 2,6 km/h (1 Bft)
16.06.2013 00:34 14,4 C 13,4 C 71 % 1014,1 hPa 0,0 l/m 0 min 0 min 0,0 UV-I 0 W/m 0,0 km/h (0 Bft)
16.06.2013 00:36 14,4 C 12,9 C 71 % 1014,2 hPa 0,0 l/m 0 min 0 min 0,0 UV-I 0 W/m 0,0 km/h (0 Bft)
16.06.2013 00:38 14,4 C 12,9 C 71 % 1014,2 hPa 0,0 l/m 0 min 0 min 0,0 UV-I 0 W/m 0,0 km/h (0 Bft)
16.06.2013 00:40 14,4 C 12,9 C 71 % 1014,1 hPa 0,0 l/m 0 min 0 min 0,0 UV-I 0 W/m 0,0 km/h (0 Bft)
16.06.2013 00:42 14,4 C 12,9 C 71 % 1014,2 hPa 0,0 l/m 0 min 0 min 0,0 UV-I 0 W/m 2,6 km/h (1 Bft)
16.06.2013 00:44 14,4 C 12,9 C 71 % 1014,2 hPa 0,0 l/m 0 min 0 min 0,0 UV-I 0 W/m 0,0 km/h (0 Bft)
16.06.2013 00:46 14,4 C 12,9 C 71 % 1014,2 hPa 0,0 l/m 0 min 0 min 0,0 UV-I 0 W/m 0,0 km/h (0 Bft)
16.06.2013 00:48 14,4 C 12,9 C 71 % 1014,2 hPa 0,0 l/m 0 min 0 min 0,0 UV-I 0 W/m 7,7 km/h (2 Bft)
16.06.2013 00:50 14,4 C 12,9 C 71 % 1014,2 hPa 0,0 l/m 0 min 0 min 0,0 UV-I 0 W/m 0,0 km/h (0 Bft)
16.06.2013 00:52 14,4 C 12,9 C 71 % 1014,2 hPa 0,0 l/m 0 min 0 min 0,0 UV-I 0 W/m 5,1 km/h (1 Bft)
16.06.2013 00:54 14,4 C 12,9 C 71 % 1014,3 hPa 0,0 l/m 0 min 0 min 0,0 UV-I 0 W/m 7,7 km/h (2 Bft)
16.06.2013 00:56 14,4 C 13,4 C 71 % 1014,3 hPa 0,0 l/m 0 min 0 min 0,0 UV-I 0 W/m 5,1 km/h (1 Bft)
16.06.2013 00:58 14,4 C 13,4 C 71 % 1014,3 hPa 0,0 l/m 0 min 0 min 0,0 UV-I 0 W/m 10,3 km/h (2 Bft)
16.06.2013 01:00 14,4 C 13,4 C 71 % 1014,3 hPa 0,0 l/m 0 min 0 min 0,0 UV-I 0 W/m 0,0 km/h (0 Bft)
16.06.2013 01:02 14,4 C 13,4 C 71 % 1014,3 hPa 0,0 l/m 0 min 0 min 0,0 UV-I 0 W/m 5,1 km/h (1 Bft)
16.06.2013 01:06 14,5 C 13,4 C 71 % 1014,3 hPa 0,0 l/m 0 min 0 min 0,0 UV-I 0 W/m 5,1 km/h (1 Bft)
16.06.2013 01:08 14,5 C 13,4 C 71 % 1014,2 hPa 0,0 l/m 0 min 0 min 0,0 UV-I 0 W/m 5,1 km/h (1 Bft)
16.06.2013 01:10 14,5 C 13,4 C 71 % 1014,3 hPa 0,0 l/m 0 min 0 min 0,0 UV-I 0 W/m 2,6 km/h (1 Bft)
16.06.2013 01:12 14,5 C 13,4 C 71 % 1014,3 hPa 0,0 l/m 0 min 0 min 0,0 UV-I 0 W/m 0,0 km/h (0 Bft)
16.06.2013 01:14 14,5 C 13,4 C 71 % 1014,3 hPa 0,0 l/m 0 min 0 min 0,0 UV-I 0 W/m 7,7 km/h (2 Bft)
16.06.2013 01:16 14,5 C 13,4 C 71 % 1014,3 hPa 0,0 l/m 0 min 0 min 0,0 UV-I 0 W/m 5,1 km/h (1 Bft)
16.06.2013 01:18 14,6 C 13,4 C 71 % 1014,3 hPa 0,0 l/m 0 min 0 min 0,0 UV-I 0 W/m 0,0 km/h (0 Bft)
16.06.2013 01:20 14,6 C 13,4 C 71 % 1014,3 hPa 0,0 l/m 0 min 0 min 0,0 UV-I 0 W/m 7,7 km/h (2 Bft)
16.06.2013 01:22 14,6 C 13,4 C 70 % 1014,3 hPa 0,0 l/m 0 min 0 min 0,0 UV-I 0 W/m 0,0 km/h (0 Bft)
16.06.2013 01:24 14,6 C 13,4 C 70 % 1014,3 hPa 0,0 l/m 0 min 0 min 0,0 UV-I 0 W/m 0,0 km/h (0 Bft)
16.06.2013 01:26 14,6 C 13,4 C 70 % 1014,4 hPa 0,0 l/m 0 min 0 min 0,0 UV-I 0 W/m 2,6 km/h (1 Bft)
16.06.2013 01:28 14,6 C 13,4 C 70 % 1014,4 hPa 0,0 l/m 0 min 0 min 0,0 UV-I 0 W/m 0,0 km/h (0 Bft)
16.06.2013 01:30 14,6 C 13,4 C 70 % 1014,4 hPa 0,0 l/m 0 min 0 min 0,0 UV-I 0 W/m 0,0 km/h (0 Bft)
16.06.2013 01:32 14,6 C 13,4 C 71 % 1014,4 hPa 0,0 l/m 0 min 0 min 0,0 UV-I 0 W/m 5,1 km/h (1 Bft)
16.06.2013 01:34 14,6 C 13,4 C 71 % 1014,4 hPa 0,0 l/m 0 min 0 min 0,0 UV-I 0 W/m 5,1 km/h (1 Bft)
16.06.2013 01:36 14,6 C 13,4 C 70 % 1014,5 hPa 0,0 l/m 0 min 0 min 0,0 UV-I 0 W/m 5,1 km/h (1 Bft)
16.06.2013 01:38 14,6 C 13,4 C 70 % 1014,5 hPa 0,0 l/m 0 min 0 min 0,0 UV-I 0 W/m 7,7 km/h (2 Bft)
16.06.2013 01:40 14,6 C 13,4 C 70 % 1014,5 hPa 0,0 l/m 0 min 0 min 0,0 UV-I 0 W/m 7,7 km/h (2 Bft)
16.06.2013 01:42 14,6 C 13,4 C 70 % 1014,5 hPa 0,0 l/m 0 min 0 min 0,0 UV-I 0 W/m 7,7 km/h (2 Bft)
16.06.2013 01:44 14,6 C 13,4 C 70 % 1014,6 hPa 0,0 l/m 0 min 0 min 0,0 UV-I 0 W/m 7,7 km/h (2 Bft)
16.06.2013 01:46 14,6 C 13,4 C 70 % 1014,6 hPa 0,0 l/m 0 min 0 min 0,0 UV-I 0 W/m 7,7 km/h (2 Bft)
16.06.2013 01:48 14,6 C 13,4 C 70 % 1014,6 hPa 0,0 l/m 0 min 0 min 0,0 UV-I 0 W/m 0,0 km/h (0 Bft)
16.06.2013 01:50 14,6 C 13,4 C 70 % 1014,7 hPa 0,0 l/m 0 min 0 min 0,0 UV-I 0 W/m 10,3 km/h (2 Bft)
16.06.2013 01:52 14,5 C 13,4 C 70 % 1014,6 hPa 0,0 l/m 0 min 0 min 0,0 UV-I 0 W/m 0,0 km/h (0 Bft)
16.06.2013 01:54 14,5 C 13,4 C 70 % 1014,6 hPa 0,0 l/m 0 min 0 min 0,0 UV-I 0 W/m 5,1 km/h (1 Bft)
16.06.2013 01:56 14,5 C 13,4 C 70 % 1014,6 hPa 0,0 l/m 0 min 0 min 0,0 UV-I 0 W/m 0,0 km/h (0 Bft)
16.06.2013 01:58 14,5 C 12,9 C 70 % 1014,6 hPa 0,0 l/m 0 min 0 min 0,0 UV-I 0 W/m 0,0 km/h (0 Bft)
16.06.2013 02:00 14,5 C 12,9 C 70 % 1014,7 hPa 0,0 l/m 0 min 0 min 0,0 UV-I 0 W/m 0,0 km/h (0 Bft)
16.06.2013 02:02 14,4 C 12,9 C 70 % 1014,6 hPa 0,0 l/m 0 min 0 min 0,0 UV-I 0 W/m 2,6 km/h (1 Bft)
16.06.2013 02:06 14,4 C 12,9 C 70 % 1014,6 hPa 0,0 l/m 0 min 0 min 0,0 UV-I 0 W/m 10,3 km/h (2 Bft)
16.06.2013 02:08 14,4 C 12,9 C 70 % 1014,6 hPa 0,0 l/m 0 min 0 min 0,0 UV-I 0 W/m 0,0 km/h (0 Bft)
16.06.2013 02:10 14,4 C 12,9 C 70 % 1014,6 hPa 0,0 l/m 0 min 0 min 0,0 UV-I 0 W/m 0,0 km/h (0 Bft)
16.06.2013 02:12 14,4 C 12,9 C 70 % 1014,6 hPa 0,0 l/m 0 min 0 min 0,0 UV-I 0 W/m 7,7 km/h (2 Bft)
16.06.2013 02:14 14,4 C 12,9 C 70 % 1014,6 hPa 0,0 l/m 0 min 0 min 0,0 UV-I 0 W/m 10,3 km/h (2 Bft)
16.06.2013 02:16 14,3 C 12,9 C 70 % 1014,7 hPa 0,0 l/m 0 min 0 min 0,0 UV-I 0 W/m 0,0 km/h (0 Bft)
16.06.2013 02:18 14,3 C 12,9 C 70 % 1014,7 hPa 0,0 l/m 0 min 0 min 0,0 UV-I 0 W/m 7,7 km/h (2 Bft)
16.06.2013 02:20 14,3 C 12,9 C 70 % 1014,6 hPa 0,0 l/m 0 min 0 min 0,0 UV-I 0 W/m 10,3 km/h (2 Bft)
16.06.2013 02:22 14,3 C 12,9 C 70 % 1014,6 hPa 0,0 l/m 0 min 0 min 0,0 UV-I 0 W/m 0,0 km/h (0 Bft)
16.06.2013 02:24 14,3 C 12,9 C 70 % 1014,7 hPa 0,0 l/m 0 min 0 min 0,0 UV-I 0 W/m 10,3 km/h (2 Bft)
16.06.2013 02:26 14,3 C 12,9 C 70 % 1014,7 hPa 0,0 l/m 0 min 0 min 0,0 UV-I 0 W/m 0,0 km/h (0 Bft)
16.06.2013 02:28 14,2 C 12,9 C 70 % 1014,7 hPa 0,0 l/m 0 min 0 min 0,0 UV-I 0 W/m 5,1 km/h (1 Bft)
16.06.2013 02:30 14,2 C 12,9 C 70 % 1014,6 hPa 0,0 l/m 0 min 0 min 0,0 UV-I 0 W/m 5,1 km/h (1 Bft)
16.06.2013 02:32 14,2 C 12,9 C 70 % 1014,7 hPa 0,0 l/m 0 min 0 min 0,0 UV-I 0 W/m 5,1 km/h (1 Bft)
16.06.2013 02:34 14,1 C 12,9 C 71 % 1014,7 hPa 0,0 l/m 0 min 0 min 0,0 UV-I 0 W/m 0,0 km/h (0 Bft)
16.06.2013 02:36 14,1 C 12,3 C 71 % 1014,7 hPa 0,0 l/m 0 min 0 min 0,0 UV-I 0 W/m 0,0 km/h (0 Bft)
16.06.2013 02:38 14,1 C 12,3 C 71 % 1014,8 hPa 0,0 l/m 0 min 0 min 0,0 UV-I 0 W/m 2,6 km/h (1 Bft)
16.06.2013 02:40 14,0 C 12,3 C 71 % 1014,7 hPa 0,0 l/m 0 min 0 min 0,0 UV-I 0 W/m 0,0 km/h (0 Bft)
16.06.2013 02:42 14,0 C 12,3 C 71 % 1014,7 hPa 0,0 l/m 0 min 0 min 0,0 UV-I 0 W/m 0,0 km/h (0 Bft)
16.06.2013 02:44 14,0 C 12,3 C 71 % 1014,7 hPa 0,0 l/m 0 min 0 min 0,0 UV-I 0 W/m 7,7 km/h (2 Bft)
16.06.2013 02:46 14,0 C 12,3 C 72 % 1014,8 hPa 0,0 l/m 0 min 0 min 0,0 UV-I 0 W/m 0,0 km/h (0 Bft)
16.06.2013 02:48 14,0 C 12,3 C 72 % 1014,7 hPa 0,0 l/m 0 min 0 min 0,0 UV-I 0 W/m 2,6 km/h (1 Bft)
16.06.2013 02:50 14,0 C 12,3 C 72 % 1014,7 hPa 0,0 l/m 0 min 0 min 0,0 UV-I 0 W/m 0,0 km/h (0 Bft)
16.06.2013 02:52 14,0 C 12,3 C 72 % 1014,7 hPa 0,0 l/m 0 min 0 min 0,0 UV-I 0 W/m 0,0 km/h (0 Bft)
16.06.2013 02:54 14,0 C 12,3 C 72 % 1014,7 hPa 0,0 l/m 0 min 0 min 0,0 UV-I 0 W/m 0,0 km/h (0 Bft)
16.06.2013 02:56 14,0 C 11,8 C 72 % 1014,7 hPa 0,0 l/m 0 min 0 min 0,0 UV-I 0 W/m 0,0 km/h (0 Bft)
16.06.2013 02:58 13,9 C 11,8 C 72 % 1014,6 hPa 0,0 l/m 0 min 0 min 0,0 UV-I 0 W/m 0,0 km/h (0 Bft)
16.06.2013 03:00 13,9 C 11,8 C 72 % 1014,7 hPa 0,0 l/m 0 min 0 min 0,0 UV-I 0 W/m 0,0 km/h (0 Bft)
16.06.2013 03:02 13,8 C 11,8 C 72 % 1014,7 hPa 0,0 l/m 0 min 0 min 0,0 UV-I 0 W/m 0,0 km/h (0 Bft)
16.06.2013 03:06 13,7 C 11,8 C 73 % 1014,6 hPa 0,0 l/m 0 min 0 min 0,0 UV-I 0 W/m 0,0 km/h (0 Bft)
16.06.2013 03:08 13,7 C 11,8 C 73 % 1014,6 hPa 0,0 l/m 0 min 0 min 0,0 UV-I 0 W/m 0,0 km/h (0 Bft)
16.06.2013 03:10 13,7 C 11,8 C 73 % 1014,6 hPa 0,0 l/m 0 min 0 min 0,0 UV-I 0 W/m 5,1 km/h (1 Bft)
16.06.2013 03:12 13,6 C 11,8 C 73 % 1014,6 hPa 0,0 l/m 0 min 0 min 0,0 UV-I 0 W/m 2,6 km/h (1 Bft)
16.06.2013 03:14 13,6 C 11,8 C 73 % 1014,6 hPa 0,0 l/m 0 min 0 min 0,0 UV-I 0 W/m 0,0 km/h (0 Bft)
16.06.2013 03:16 13,5 C 11,8 C 73 % 1014,6 hPa 0,0 l/m 0 min 0 min 0,0 UV-I 0 W/m 0,0 km/h (0 Bft)
16.06.2013 03:18 13,5 C 11,8 C 74 % 1014,6 hPa 0,0 l/m 0 min 0 min 0,0 UV-I 0 W/m 12,9 km/h (3 Bft)
16.06.2013 03:20 13,4 C 11,8 C 74 % 1014,6 hPa 0,0 l/m 0 min 0 min 0,0 UV-I 0 W/m 0,0 km/h (0 Bft)
16.06.2013 03:22 13,4 C 11,8 C 74 % 1014,6 hPa 0,0 l/m 0 min 0 min 0,0 UV-I 0 W/m 0,0 km/h (0 Bft)
16.06.2013 03:24 13,4 C 11,8 C 74 % 1014,6 hPa 0,0 l/m 0 min 0 min 0,0 UV-I 0 W/m 2,6 km/h (1 Bft)
16.06.2013 03:26 13,3 C 11,2 C 74 % 1014,6 hPa 0,0 l/m 0 min 0 min 0,0 UV-I 0 W/m 0,0 km/h (0 Bft)
16.06.2013 03:28 13,3 C 11,2 C 74 % 1014,6 hPa 0,0 l/m 0 min 0 min 0,0 UV-I 0 W/m 0,0 km/h (0 Bft)
16.06.2013 03:30 13,3 C 11,2 C 74 % 1014,6 hPa 0,0 l/m 0 min 0 min 0,0 UV-I 0 W/m 0,0 km/h (0 Bft)
16.06.2013 03:32 13,2 C 11,2 C 74 % 1014,6 hPa 0,0 l/m 0 min 0 min 0,0 UV-I 0 W/m 7,7 km/h (2 Bft)
16.06.2013 03:34 13,2 C 11,2 C 75 % 1014,7 hPa 0,0 l/m 0 min 0 min 0,0 UV-I 0 W/m 10,3 km/h (2 Bft)
16.06.2013 03:36 13,2 C 11,8 C 75 % 1014,6 hPa 0,0 l/m 0 min 0 min 0,0 UV-I 0 W/m 12,9 km/h (3 Bft)
16.06.2013 03:38 13,2 C 11,2 C 75 % 1014,6 hPa 0,0 l/m 0 min 0 min 0,0 UV-I 0 W/m 2,6 km/h (1 Bft)
16.06.2013 03:40 13,1 C 11,8 C 75 % 1014,6 hPa 0,0 l/m 0 min 0 min 0,0 UV-I 0 W/m 15,4 km/h (3 Bft)
16.06.2013 03:42 13,1 C 11,2 C 75 % 1014,6 hPa 0,0 l/m 0 min 0 min 0,0 UV-I 0 W/m 7,7 km/h (2 Bft)
16.06.2013 03:44 13,1 C 11,8 C 75 % 1014,6 hPa 0,0 l/m 0 min 0 min 0,0 UV-I 0 W/m 7,7 km/h (2 Bft)
16.06.2013 03:46 13,1 C 11,8 C 75 % 1014,6 hPa 0,0 l/m 0 min 0 min 0,0 UV-I 0 W/m 2,6 km/h (1 Bft)
16.06.2013 03:48 13,0 C 11,8 C 75 % 1014,6 hPa 0,0 l/m 0 min 0 min 0,0 UV-I 0 W/m 5,1 km/h (1 Bft)
16.06.2013 03:50 13,0 C 11,2 C 75 % 1014,6 hPa 0,0 l/m 0 min 0 min 0,0 UV-I 0 W/m 2,6 km/h (1 Bft)
16.06.2013 03:52 12,9 C 11,2 C 75 % 1014,6 hPa 0,0 l/m 0 min 0 min 0,0 UV-I 0 W/m 2,6 km/h (1 Bft)
16.06.2013 03:54 12,9 C 11,2 C 75 % 1014,7 hPa 0,0 l/m 0 min 0 min 0,0 UV-I 0 W/m 2,6 km/h (1 Bft)
16.06.2013 03:56 12,9 C 11,2 C 75 % 1014,6 hPa 0,0 l/m 0 min 0 min 0,0 UV-I 0 W/m 5,1 km/h (1 Bft)
16.06.2013 03:58 12,9 C 11,2 C 75 % 1014,5 hPa 0,0 l/m 0 min 0 min 0,0 UV-I 0 W/m 2,6 km/h (1 Bft)
16.06.2013 04:00 12,9 C 11,2 C 75 % 1014,6 hPa 0,0 l/m 0 min 0 min 0,0 UV-I 0 W/m 5,1 km/h (1 Bft)
16.06.2013 04:02 12,8 C 11,2 C 75 % 1014,6 hPa 0,0 l/m 0 min 0 min 0,0 UV-I 0 W/m 0,0 km/h (0 Bft)
16.06.2013 04:06 12,8 C 11,2 C 75 % 1014,6 hPa 0,0 l/m 0 min 0 min 0,0 UV-I 0 W/m 0,0 km/h (0 Bft)
16.06.2013 04:08 12,8 C 11,2 C 75 % 1014,6 hPa 0,0 l/m 0 min 0 min 0,0 UV-I 0 W/m 0,0 km/h (0 Bft)
16.06.2013 04:10 12,8 C 11,2 C 76 % 1014,6 hPa 0,0 l/m 0 min 0 min 0,0 UV-I 0 W/m 0,0 km/h (0 Bft)
16.06.2013 04:12 12,8 C 11,2 C 76 % 1014,6 hPa 0,0 l/m 0 min 0 min 0,0 UV-I 0 W/m 0,0 km/h (0 Bft)
16.06.2013 04:14 12,7 C 11,2 C 76 % 1014,7 hPa 0,0 l/m 0 min 0 min 0,0 UV-I 0 W/m 0,0 km/h (0 Bft)
16.06.2013 04:16 12,7 C 11,2 C 76 % 1014,7 hPa 0,0 l/m 0 min 0 min 0,0 UV-I 0 W/m 0,0 km/h (0 Bft)
16.06.2013 04:18 12,7 C 11,2 C 76 % 1014,7 hPa 0,0 l/m 0 min 0 min 0,0 UV-I 0 W/m 12,9 km/h (3 Bft)
16.06.2013 04:20 12,7 C 11,2 C 76 % 1014,7 hPa 0,0 l/m 0 min 0 min 0,0 UV-I 0 W/m 0,0 km/h (0 Bft)
16.06.2013 04:22 12,7 C 11,2 C 76 % 1014,7 hPa 0,0 l/m 0 min 0 min 0,0 UV-I 0 W/m 0,0 km/h (0 Bft)
16.06.2013 04:24 12,7 C 11,8 C 76 % 1014,8 hPa 0,0 l/m 0 min 0 min 0,0 UV-I 0 W/m 0,0 km/h (0 Bft)
16.06.2013 04:26 12,7 C 11,8 C 76 % 1014,8 hPa 0,0 l/m 0 min 0 min 0,0 UV-I 0 W/m 12,9 km/h (3 Bft)
16.06.2013 04:28 12,7 C 11,8 C 76 % 1014,7 hPa 0,0 l/m 0 min 0 min 0,0 UV-I 0 W/m 2,6 km/h (1 Bft)
16.06.2013 04:30 12,7 C 11,8 C 76 % 1014,8 hPa 0,0 l/m 0 min 0 min 0,0 UV-I 0 W/m 0,0 km/h (0 Bft)
16.06.2013 04:32 12,7 C 11,8 C 77 % 1014,8 hPa 0,0 l/m 0 min 0 min 0,0 UV-I 0 W/m 5,1 km/h (1 Bft)
16.06.2013 04:34 12,7 C 11,8 C 77 % 1014,8 hPa 0,0 l/m 0 min 0 min 0,0 UV-I 0 W/m 12,9 km/h (3 Bft)
16.06.2013 04:36 12,7 C 11,2 C 77 % 1014,8 hPa 0,0 l/m 0 min 0 min 0,0 UV-I 0 W/m 5,1 km/h (1 Bft)
16.06.2013 04:38 12,7 C 11,2 C 77 % 1014,7 hPa 0,0 l/m 0 min 0 min 0,0 UV-I 0 W/m 12,9 km/h (3 Bft)
16.06.2013 04:40 12,6 C 11,2 C 77 % 1014,7 hPa 0,0 l/m 0 min 0 min 0,0 UV-I 0 W/m 0,0 km/h (0 Bft)
16.06.2013 04:42 12,6 C 11,2 C 77 % 1014,7 hPa 0,0 l/m 0 min 0 min 0,0 UV-I 0 W/m 2,6 km/h (1 Bft)
16.06.2013 04:44 12,6 C 11,2 C 77 % 1014,7 hPa 0,0 l/m 0 min 0 min 0,0 UV-I 0 W/m 5,1 km/h (1 Bft)
16.06.2013 04:46 12,6 C 11,2 C 77 % 1014,6 hPa 0,0 l/m 0 min 0 min 0,0 UV-I 0 W/m 7,7 km/h (2 Bft)
16.06.2013 04:48 12,6 C 11,2 C 77 % 1014,7 hPa 0,0 l/m 0 min 0 min 0,0 UV-I 0 W/m 10,3 km/h (2 Bft)
16.06.2013 04:50 12,6 C 11,2 C 77 % 1014,7 hPa 0,0 l/m 0 min 0 min 0,0 UV-I 0 W/m 7,7 km/h (2 Bft)
16.06.2013 04:52 12,5 C 11,2 C 77 % 1014,7 hPa 0,0 l/m 0 min 0 min 0,0 UV-I 0 W/m 5,1 km/h (1 Bft)
16.06.2013 04:54 12,5 C 11,2 C 77 % 1014,7 hPa 0,0 l/m 0 min 0 min 0,0 UV-I 0 W/m 5,1 km/h (1 Bft)
16.06.2013 04:56 12,4 C 11,2 C 77 % 1014,7 hPa 0,0 l/m 0 min 0 min 0,0 UV-I 0 W/m 0,0 km/h (0 Bft)
16.06.2013 04:58 12,4 C 11,2 C 77 % 1014,8 hPa 0,0 l/m 0 min 0 min 0,0 UV-I 0 W/m 0,0 km/h (0 Bft)
16.06.2013 05:00 12,4 C 10,7 C 78 % 1014,7 hPa 0,0 l/m 0 min 0 min 0,0 UV-I 0 W/m 2,6 km/h (1 Bft)
16.06.2013 05:02 12,4 C 10,7 C 78 % 1014,8 hPa 0,0 l/m 0 min 0 min 0,0 UV-I 0 W/m 0,0 km/h (0 Bft)
16.06.2013 05:06 12,3 C 11,2 C 77 % 1014,7 hPa 0,0 l/m 0 min 0 min 0,0 UV-I 0 W/m 7,7 km/h (2 Bft)
16.06.2013 05:08 12,3 C 11,2 C 77 % 1014,7 hPa 0,0 l/m 0 min 0 min 0,0 UV-I 0 W/m 5,1 km/h (1 Bft)
16.06.2013 05:10 12,3 C 11,2 C 77 % 1014,7 hPa 0,0 l/m 0 min 0 min 0,0 UV-I 0 W/m 0,0 km/h (0 Bft)
16.06.2013 05:12 12,3 C 11,2 C 77 % 1014,7 hPa 0,0 l/m 0 min 0 min 0,0 UV-I 0 W/m 0,0 km/h (0 Bft)
16.06.2013 05:14 12,3 C 10,7 C 77 % 1014,7 hPa 0,0 l/m 0 min 0 min 0,0 UV-I 0 W/m 2,6 km/h (1 Bft)
16.06.2013 05:16 12,3 C 10,7 C 77 % 1014,8 hPa 0,0 l/m 0 min 0 min 0,0 UV-I 0 W/m 0,0 km/h (0 Bft)
16.06.2013 05:18 12,2 C 10,7 C 77 % 1014,7 hPa 0,0 l/m 0 min 0 min 0,0 UV-I 0 W/m 0,0 km/h (0 Bft)
16.06.2013 05:20 12,2 C 10,7 C 77 % 1014,7 hPa 0,0 l/m 0 min 0 min 0,0 UV-I 0 W/m 0,0 km/h (0 Bft)
16.06.2013 05:22 12,2 C 10,7 C 77 % 1014,7 hPa 0,0 l/m 0 min 0 min 0,0 UV-I 0 W/m 0,0 km/h (0 Bft)
16.06.2013 05:24 12,2 C 10,7 C 77 % 1014,7 hPa 0,0 l/m 0 min 0 min 0,0 UV-I 0 W/m 2,6 km/h (1 Bft)
16.06.2013 05:26 12,2 C 11,2 C 77 % 1014,7 hPa 0,0 l/m 0 min 0 min 0,0 UV-I 0 W/m 0,0 km/h (0 Bft)
16.06.2013 05:28 12,2 C 11,2 C 78 % 1014,8 hPa 0,0 l/m 0 min 0 min 0,0 UV-I 0 W/m 7,7 km/h (2 Bft)
16.06.2013 05:30 12,2 C 11,2 C 78 % 1014,8 hPa 0,0 l/m 0 min 0 min 0,0 UV-I 5 W/m 0,0 km/h (0 Bft)
16.06.2013 05:32 12,1 C 11,2 C 78 % 1014,8 hPa 0,0 l/m 0 min 0 min 0,0 UV-I 5 W/m 0,0 km/h (0 Bft)
16.06.2013 05:34 12,1 C 11,2 C 78 % 1014,9 hPa 0,0 l/m 0 min 0 min 0,0 UV-I 5 W/m 10,3 km/h (2 Bft)
16.06.2013 05:36 12,1 C 11,2 C 78 % 1014,8 hPa 0,0 l/m 0 min 0 min 0,0 UV-I 5 W/m 0,0 km/h (0 Bft)
16.06.2013 05:38 12,1 C 11,2 C 78 % 1014,8 hPa 0,0 l/m 0 min 0 min 0,0 UV-I 7 W/m 0,0 km/h (0 Bft)
16.06.2013 05:40 12,1 C 11,2 C 78 % 1014,8 hPa 0,0 l/m 0 min 0 min 0,0 UV-I 7 W/m 10,3 km/h (2 Bft)
16.06.2013 05:42 12,1 C 11,2 C 78 % 1014,8 hPa 0,0 l/m 0 min 0 min 0,0 UV-I 11 W/m 0,0 km/h (0 Bft)
16.06.2013 05:44 12,1 C 11,2 C 79 % 1014,8 hPa 0,0 l/m 0 min 0 min 0,0 UV-I 11 W/m 0,0 km/h (0 Bft)
16.06.2013 05:46 12,1 C 11,2 C 79 % 1014,8 hPa 0,0 l/m 0 min 0 min 0,0 UV-I 12 W/m 0,0 km/h (0 Bft)
16.06.2013 05:48 12,1 C 11,2 C 79 % 1014,8 hPa 0,0 l/m 0 min 0 min 0,0 UV-I 14 W/m 5,1 km/h (1 Bft)
16.06.2013 05:50 12,1 C 11,2 C 79 % 1014,8 hPa 0,0 l/m 0 min 0 min 0,0 UV-I 16 W/m 5,1 km/h (1 Bft)
16.06.2013 05:52 12,1 C 11,2 C 79 % 1014,8 hPa 0,0 l/m 0 min 0 min 0,0 UV-I 21 W/m 7,7 km/h (2 Bft)
16.06.2013 05:54 12,1 C 11,2 C 79 % 1014,8 hPa 0,0 l/m 0 min 0 min 0,0 UV-I 26 W/m 0,0 km/h (0 Bft)
16.06.2013 05:56 12,1 C 11,2 C 79 % 1014,8 hPa 0,0 l/m 0 min 0 min 0,0 UV-I 26 W/m 5,1 km/h (1 Bft)
16.06.2013 05:58 12,1 C 11,2 C 79 % 1014,9 hPa 0,0 l/m 0 min 0 min 0,0 UV-I 26 W/m 7,7 km/h (2 Bft)
16.06.2013 06:00 12,1 C 11,2 C 79 % 1014,9 hPa 0,0 l/m 0 min 0 min 0,0 UV-I 23 W/m 2,6 km/h (1 Bft)
16.06.2013 06:02 12,1 C 11,2 C 79 % 1014,9 hPa 0,0 l/m 0 min 0 min 0,0 UV-I 21 W/m 0,0 km/h (0 Bft)
16.06.2013 06:06 12,2 C 11,2 C 79 % 1015,0 hPa 0,0 l/m 0 min 0 min 0,0 UV-I 19 W/m 7,7 km/h (2 Bft)
16.06.2013 06:08 12,2 C 11,2 C 79 % 1015,0 hPa 0,0 l/m 0 min 0 min 0,0 UV-I 21 W/m 0,0 km/h (0 Bft)
16.06.2013 06:10 12,2 C 11,2 C 79 % 1015,0 hPa 0,0 l/m 0 min 0 min 0,0 UV-I 21 W/m 0,0 km/h (0 Bft)
16.06.2013 06:12 12,2 C 11,2 C 79 % 1015,0 hPa 0,0 l/m 0 min 0 min 0,0 UV-I 21 W/m 10,3 km/h (2 Bft)
16.06.2013 06:14 12,2 C 11,2 C 79 % 1015,1 hPa 0,0 l/m 0 min 0 min 0,0 UV-I 23 W/m 7,7 km/h (2 Bft)
16.06.2013 06:16 12,2 C 11,8 C 79 % 1015,2 hPa 0,0 l/m 0 min 0 min 0,0 UV-I 25 W/m 2,6 km/h (1 Bft)
16.06.2013 06:18 12,2 C 11,8 C 79 % 1015,1 hPa 0,0 l/m 0 min 0 min 0,0 UV-I 26 W/m 5,1 km/h (1 Bft)
16.06.2013 06:20 12,2 C 11,8 C 79 % 1015,1 hPa 0,0 l/m 0 min 0 min 0,0 UV-I 26 W/m 5,1 km/h (1 Bft)
16.06.2013 06:22 12,2 C 11,8 C 79 % 1015,1 hPa 0,0 l/m 0 min 0 min 0,0 UV-I 30 W/m 7,7 km/h (2 Bft)
16.06.2013 06:24 12,3 C 11,8 C 80 % 1015,2 hPa 0,0 l/m 0 min 0 min 0,0 UV-I 35 W/m 7,7 km/h (2 Bft)
16.06.2013 06:26 12,3 C 11,8 C 79 % 1015,2 hPa 0,0 l/m 0 min 0 min 0,0 UV-I 40 W/m 7,7 km/h (2 Bft)
16.06.2013 06:28 12,3 C 11,8 C 80 % 1015,2 hPa 0,0 l/m 0 min 0 min 0,0 UV-I 44 W/m 7,7 km/h (2 Bft)
16.06.2013 06:30 12,3 C 11,8 C 79 % 1015,2 hPa 0,0 l/m 0 min 0 min 0,0 UV-I 42 W/m 7,7 km/h (2 Bft)
16.06.2013 06:32 12,4 C 11,8 C 79 % 1015,2 hPa 0,0 l/m 0 min 0 min 0,0 UV-I 42 W/m 5,1 km/h (1 Bft)
16.06.2013 06:34 12,4 C 11,8 C 79 % 1015,3 hPa 0,0 l/m 0 min 0 min 0,0 UV-I 42 W/m 0,0 km/h (0 Bft)
16.06.2013 06:36 12,4 C 11,8 C 79 % 1015,2 hPa 0,0 l/m 0 min 0 min 0,0 UV-I 44 W/m 5,1 km/h (1 Bft)
16.06.2013 06:38 12,4 C 11,8 C 79 % 1015,2 hPa 0,0 l/m 0 min 0 min 0,0 UV-I 47 W/m 2,6 km/h (1 Bft)
16.06.2013 06:40 12,4 C 11,8 C 79 % 1015,2 hPa 0,0 l/m 0 min 0 min 0,0 UV-I 51 W/m 7,7 km/h (2 Bft)
16.06.2013 06:42 12,5 C 11,8 C 79 % 1015,2 hPa 0,0 l/m 0 min 0 min 0,0 UV-I 58 W/m 7,7 km/h (2 Bft)
16.06.2013 06:44 12,6 C 12,3 C 78 % 1015,2 hPa 0,0 l/m 0 min 0 min 0,0 UV-I 56 W/m 7,7 km/h (2 Bft)
16.06.2013 06:46 12,6 C 12,3 C 79 % 1015,3 hPa 0,0 l/m 0 min 0 min 0,0 UV-I 49 W/m 0,0 km/h (0 Bft)
16.06.2013 06:48 12,6 C 12,3 C 79 % 1015,3 hPa 0,0 l/m 0 min 0 min 0,0 UV-I 47 W/m 0,0 km/h (0 Bft)
16.06.2013 06:50 12,6 C 12,3 C 79 % 1015,3 hPa 0,0 l/m 0 min 0 min 0,0 UV-I 47 W/m 12,9 km/h (3 Bft)
16.06.2013 06:52 12,7 C 12,3 C 79 % 1015,3 hPa 0,0 l/m 0 min 0 min 0,0 UV-I 51 W/m 0,0 km/h (0 Bft)
16.06.2013 06:54 12,7 C 12,3 C 78 % 1015,2 hPa 0,0 l/m 0 min 0 min 0,0 UV-I 53 W/m 0,0 km/h (0 Bft)
16.06.2013 06:56 12,7 C 12,3 C 79 % 1015,2 hPa 0,0 l/m 0 min 0 min 0,0 UV-I 54 W/m 2,6 km/h (1 Bft)
16.06.2013 06:58 12,7 C 12,3 C 79 % 1015,3 hPa 0,0 l/m 0 min 0 min 0,0 UV-I 60 W/m 0,0 km/h (0 Bft)
16.06.2013 07:00 12,8 C 12,3 C 78 % 1015,2 hPa 0,0 l/m 0 min 0 min 0,0 UV-I 60 W/m 15,4 km/h (3 Bft)
16.06.2013 07:02 12,8 C 12,3 C 78 % 1015,2 hPa 0,0 l/m 0 min 0 min 0,0 UV-I 62 W/m 2,6 km/h (1 Bft)
16.06.2013 07:06 12,8 C 12,3 C 78 % 1015,1 hPa 0,0 l/m 0 min 0 min 0,0 UV-I 69 W/m 7,7 km/h (2 Bft)
16.06.2013 07:08 12,8 C 12,3 C 78 % 1015,1 hPa 0,0 l/m 0 min 0 min 0,0 UV-I 70 W/m 0,0 km/h (0 Bft)
16.06.2013 07:10 12,8 C 12,3 C 78 % 1015,1 hPa 0,0 l/m 0 min 0 min 0,0 UV-I 70 W/m 5,1 km/h (1 Bft)
16.06.2013 07:12 12,9 C 12,3 C 78 % 1015,1 hPa 0,0 l/m 0 min 0 min 0,0 UV-I 74 W/m 0,0 km/h (0 Bft)
16.06.2013 07:14 12,9 C 12,3 C 78 % 1015,1 hPa 0,0 l/m 0 min 0 min 0,0 UV-I 76 W/m 5,1 km/h (1 Bft)
16.06.2013 07:16 12,9 C 12,3 C 78 % 1015,2 hPa 0,0 l/m 0 min 0 min 0,0 UV-I 76 W/m 10,3 km/h (2 Bft)
16.06.2013 07:18 12,9 C 12,3 C 78 % 1015,1 hPa 0,0 l/m 0 min 0 min 0,0 UV-I 79 W/m 0,0 km/h (0 Bft)
16.06.2013 07:20 12,9 C 12,9 C 78 % 1015,2 hPa 0,0 l/m 0 min 0 min 0,0 UV-I 84 W/m 0,0 km/h (0 Bft)
16.06.2013 07:22 13,0 C 12,9 C 80 % 1015,1 hPa 0,0 l/m 0 min 0 min 0,0 UV-I 88 W/m 2,6 km/h (1 Bft)
16.06.2013 07:24 13,0 C 12,9 C 78 % 1015,2 hPa 0,0 l/m 0 min 0 min 0,0 UV-I 86 W/m 10,3 km/h (2 Bft)
16.06.2013 07:26 13,1 C 12,9 C 78 % 1015,1 hPa 0,0 l/m 0 min 0 min 0,0 UV-I 86 W/m 7,7 km/h (2 Bft)
16.06.2013 07:28 13,1 C 12,9 C 78 % 1015,2 hPa 0,0 l/m 0 min 0 min 0,0 UV-I 91 W/m 0,0 km/h (0 Bft)
16.06.2013 07:30 13,1 C 12,9 C 78 % 1015,1 hPa 0,0 l/m 0 min 0 min 0,0 UV-I 100 W/m 10,3 km/h (2 Bft)
16.06.2013 07:32 13,1 C 12,9 C 78 % 1015,1 hPa 0,0 l/m 0 min 0 min 0,0 UV-I 111 W/m 2,6 km/h (1 Bft)
16.06.2013 07:34 13,2 C 12,9 C 78 % 1015,1 hPa 0,0 l/m 0 min 0 min 0,0 UV-I 121 W/m 10,3 km/h (2 Bft)
16.06.2013 07:36 13,2 C 12,9 C 78 % 1015,1 hPa 0,0 l/m 0 min 0 min 0,0 UV-I 123 W/m 5,1 km/h (1 Bft)
16.06.2013 07:38 13,2 C 12,9 C 78 % 1015,2 hPa 0,0 l/m 0 min 0 min 0,0 UV-I 127 W/m 5,1 km/h (1 Bft)
16.06.2013 07:40 13,2 C 12,9 C 78 % 1015,2 hPa 0,0 l/m 0 min 0 min 0,0 UV-I 130 W/m 5,1 km/h (1 Bft)
16.06.2013 07:42 13,3 C 12,9 C 78 % 1015,1 hPa 0,0 l/m 0 min 0 min 0,0 UV-I 132 W/m 12,9 km/h (3 Bft)
16.06.2013 07:44 13,3 C 12,9 C 77 % 1015,2 hPa 0,0 l/m 0 min 0 min 0,0 UV-I 134 W/m 7,7 km/h (2 Bft)
16.06.2013 07:46 13,3 C 12,9 C 77 % 1015,2 hPa 0,0 l/m 0 min 0 min 0,0 UV-I 125 W/m 15,4 km/h (3 Bft)
16.06.2013 07:48 13,3 C 12,9 C 77 % 1015,2 hPa 0,0 l/m 0 min 0 min 0,0 UV-I 123 W/m 12,9 km/h (3 Bft)
16.06.2013 07:50 13,4 C 12,9 C 77 % 1015,3 hPa 0,0 l/m 0 min 0 min 0,0 UV-I 132 W/m 0,0 km/h (0 Bft)
16.06.2013 07:52 13,4 C 12,9 C 77 % 1015,2 hPa 0,0 l/m 0 min 0 min 0,0 UV-I 135 W/m 0,0 km/h (0 Bft)
16.06.2013 07:54 13,4 C 12,9 C 77 % 1015,3 hPa 0,0 l/m 0 min 0 min 0,0 UV-I 149 W/m 12,9 km/h (3 Bft)
16.06.2013 07:56 13,5 C 12,9 C 77 % 1015,3 hPa 0,0 l/m 0 min 0 min 0,0 UV-I 149 W/m 12,9 km/h (3 Bft)
16.06.2013 07:58 13,5 C 12,9 C 77 % 1015,3 hPa 0,0 l/m 0 min 0 min 0,0 UV-I 130 W/m 12,9 km/h (3 Bft)
16.06.2013 08:00 13,6 C 12,9 C 76 % 1015,3 hPa 0,0 l/m 0 min 0 min 0,0 UV-I 128 W/m 7,7 km/h (2 Bft)
16.06.2013 08:02 13,6 C 12,9 C 77 % 1015,3 hPa 0,0 l/m 0 min 0 min 0,0 UV-I 141 W/m 5,1 km/h (1 Bft)
16.06.2013 08:05 13,6 C 13,4 C 76 % 1015,3 hPa 0,0 l/m 0 min 0 min 0,0 UV-I 162 W/m 12,9 km/h (3 Bft)
16.06.2013 08:06 13,6 C 13,4 C 76 % 1015,3 hPa 0,0 l/m 0 min 0 min 0,0 UV-I 172 W/m 0,0 km/h (0 Bft)
16.06.2013 08:08 13,7 C 13,4 C 76 % 1015,5 hPa 0,0 l/m 0 min 0 min 0,0 UV-I 179 W/m 15,4 km/h (3 Bft)
16.06.2013 08:10 13,7 C 13,4 C 76 % 1015,4 hPa 0,0 l/m 0 min 0 min 0,0 UV-I 186 W/m 23,2 km/h (4 Bft)
16.06.2013 08:12 13,7 C 13,4 C 75 % 1015,4 hPa 0,0 l/m 0 min 0 min 0,0 UV-I 183 W/m 15,4 km/h (3 Bft)
16.06.2013 08:14 13,8 C 13,4 C 76 % 1015,3 hPa 0,0 l/m 0 min 0 min 0,0 UV-I 174 W/m 2,6 km/h (1 Bft)
16.06.2013 08:16 13,8 C 13,4 C 76 % 1015,3 hPa 0,0 l/m 0 min 0 min 0,0 UV-I 160 W/m 7,7 km/h (2 Bft)
16.06.2013 08:18 13,8 C 13,4 C 75 % 1015,3 hPa 0,0 l/m 0 min 0 min 0,0 UV-I 179 W/m 7,7 km/h (2 Bft)
16.06.2013 08:20 13,9 C 13,4 C 75 % 1015,4 hPa 0,0 l/m 0 min 0 min 0,0 UV-I 193 W/m 7,7 km/h (2 Bft)
16.06.2013 08:22 13,9 C 13,4 C 75 % 1015,3 hPa 0,0 l/m 0 min 0 min 0,0 UV-I 156 W/m 10,3 km/h (2 Bft)
16.06.2013 08:24 14,0 C 13,4 C 75 % 1015,4 hPa 0,0 l/m 0 min 0 min 0,0 UV-I 158 W/m 7,7 km/h (2 Bft)
16.06.2013 08:26 14,0 C 13,4 C 75 % 1015,4 hPa 0,0 l/m 0 min 0 min 0,0 UV-I 162 W/m 7,7 km/h (2 Bft)
16.06.2013 08:28 14,0 C 14,0 C 75 % 1015,4 hPa 0,0 l/m 0 min 0 min 0,0 UV-I 174 W/m 5,1 km/h (1 Bft)
16.06.2013 08:30 14,0 C 14,0 C 75 % 1015,4 hPa 0,0 l/m 0 min 0 min 0,0 UV-I 181 W/m 7,7 km/h (2 Bft)
16.06.2013 08:32 14,0 C 14,0 C 75 % 1015,3 hPa 0,0 l/m 0 min 0 min 0,0 UV-I 188 W/m 0,0 km/h (0 Bft)
16.06.2013 08:34 14,0 C 14,0 C 75 % 1015,3 hPa 0,0 l/m 0 min 0 min 0,0 UV-I 172 W/m 0,0 km/h (0 Bft)
16.06.2013 08:36 14,1 C 14,0 C 75 % 1015,3 hPa 0,0 l/m 0 min 0 min 0,0 UV-I 172 W/m 10,3 km/h (2 Bft)
16.06.2013 08:38 14,2 C 14,0 C 75 % 1015,3 hPa 0,0 l/m 0 min 0 min 0,0 UV-I 195 W/m 12,9 km/h (3 Bft)
16.06.2013 08:40 14,2 C 14,0 C 75 % 1015,3 hPa 0,0 l/m 0 min 0 min 0,0 UV-I 200 W/m 2,6 km/h (1 Bft)
16.06.2013 08:42 14,2 C 14,0 C 74 % 1015,4 hPa 0,0 l/m 0 min 0 min 0,0 UV-I 195 W/m 5,1 km/h (1 Bft)
16.06.2013 08:44 14,3 C 14,0 C 74 % 1015,4 hPa 0,0 l/m 0 min 0 min 0,0 UV-I 188 W/m 5,1 km/h (1 Bft)
16.06.2013 08:46 14,3 C 14,6 C 74 % 1015,4 hPa 0,0 l/m 0 min 0 min 0,0 UV-I 185 W/m 2,6 km/h (1 Bft)
16.06.2013 08:48 14,3 C 14,6 C 74 % 1015,4 hPa 0,0 l/m 0 min 0 min 0,0 UV-I 174 W/m 7,7 km/h (2 Bft)
16.06.2013 08:50 14,3 C 14,6 C 74 % 1015,4 hPa 0,0 l/m 0 min 0 min 0,0 UV-I 179 W/m 18,0 km/h (3 Bft)
16.06.2013 08:52 14,4 C 14,0 C 74 % 1015,5 hPa 0,0 l/m 0 min 0 min 0,0 UV-I 197 W/m 15,4 km/h (3 Bft)
16.06.2013 08:54 14,4 C 14,6 C 73 % 1015,4 hPa 0,0 l/m 0 min 0 min 0,0 UV-I 207 W/m 7,7 km/h (2 Bft)
16.06.2013 08:56 14,4 C 14,6 C 73 % 1015,5 hPa 0,0 l/m 0 min 0 min 0,0 UV-I 211 W/m 7,7 km/h (2 Bft)
16.06.2013 08:58 14,4 C 14,6 C 74 % 1015,5 hPa 0,0 l/m 0 min 0 min 0,0 UV-I 209 W/m 0,0 km/h (0 Bft)
16.06.2013 09:00 14,5 C 14,6 C 74 % 1015,6 hPa 0,0 l/m 0 min 0 min 0,0 UV-I 211 W/m 7,7 km/h (2 Bft)
16.06.2013 09:02 14,5 C 14,6 C 73 % 1015,6 hPa 0,0 l/m 0 min 0 min 0,0 UV-I 220 W/m 18,0 km/h (3 Bft)
16.06.2013 09:06 14,6 C 14,6 C 73 % 1015,6 hPa 0,0 l/m 0 min 0 min 0,0 UV-I 218 W/m 7,7 km/h (2 Bft)
16.06.2013 09:08 14,6 C 14,6 C 73 % 1015,5 hPa 0,0 l/m 0 min 0 min 0,0 UV-I 227 W/m 15,4 km/h (3 Bft)
16.06.2013 09:10 14,7 C 14,6 C 73 % 1015,5 hPa 0,0 l/m 0 min 0 min 0,0 UV-I 232 W/m 15,4 km/h (3 Bft)
16.06.2013 09:12 14,7 C 14,6 C 72 % 1015,6 hPa 0,0 l/m 0 min 0 min 0,0 UV-I 237 W/m 7,7 km/h (2 Bft)
16.06.2013 09:14 14,7 C 15,1 C 72 % 1015,5 hPa 0,0 l/m 0 min 0 min 0,5 UV-I 255 W/m 12,9 km/h (3 Bft)
16.06.2013 09:16 14,7 C 15,1 C 72 % 1015,5 hPa 0,0 l/m 0 min 0 min 0,5 UV-I 264 W/m 10,3 km/h (2 Bft)
16.06.2013 09:18 14,8 C 15,1 C 72 % 1015,5 hPa 0,0 l/m 0 min 0 min 0,5 UV-I 260 W/m 10,3 km/h (2 Bft)
16.06.2013 09:20 14,8 C 15,1 C 73 % 1015,5 hPa 0,0 l/m 0 min 0 min 0,5 UV-I 243 W/m 7,7 km/h (2 Bft)
16.06.2013 09:22 14,8 C 15,1 C 73 % 1015,5 hPa 0,0 l/m 0 min 0 min 0,5 UV-I 237 W/m 10,3 km/h (2 Bft)
16.06.2013 09:24 14,9 C 15,1 C 72 % 1015,5 hPa 0,0 l/m 0 min 0 min 0,5 UV-I 253 W/m 5,1 km/h (1 Bft)
16.06.2013 09:26 14,9 C 15,1 C 72 % 1015,5 hPa 0,0 l/m 0 min 0 min 0,6 UV-I 274 W/m 10,3 km/h (2 Bft)
16.06.2013 09:28 15,0 C 15,1 C 72 % 1015,5 hPa 0,0 l/m 0 min 0 min 0,6 UV-I 276 W/m 10,3 km/h (2 Bft)
16.06.2013 09:30 15,0 C 15,1 C 73 % 1015,5 hPa 0,0 l/m 0 min 0 min 0,6 UV-I 260 W/m 7,7 km/h (2 Bft)
16.06.2013 09:32 15,1 C 15,1 C 72 % 1015,6 hPa 0,0 l/m 0 min 0 min 0,5 UV-I 244 W/m 12,9 km/h (3 Bft)
16.06.2013 09:34 15,1 C 15,1 C 71 % 1015,5 hPa 0,0 l/m 0 min 0 min 0,5 UV-I 230 W/m 10,3 km/h (2 Bft)
16.06.2013 09:36 15,2 C 15,1 C 72 % 1015,5 hPa 0,0 l/m 0 min 0 min 0,0 UV-I 223 W/m 7,7 km/h (2 Bft)
16.06.2013 09:38 15,2 C 15,1 C 71 % 1015,5 hPa 0,0 l/m 0 min 0 min 0,5 UV-I 225 W/m 18,0 km/h (3 Bft)
16.06.2013 09:40 15,2 C 15,1 C 71 % 1015,6 hPa 0,0 l/m 0 min 0 min 0,0 UV-I 223 W/m 5,1 km/h (1 Bft)
16.06.2013 09:42 15,2 C 15,1 C 71 % 1015,5 hPa 0,0 l/m 0 min 0 min 0,0 UV-I 213 W/m 12,9 km/h (3 Bft)
16.06.2013 09:44 15,2 C 15,1 C 71 % 1015,5 hPa 0,0 l/m 0 min 0 min 0,0 UV-I 214 W/m 7,7 km/h (2 Bft)
16.06.2013 09:46 15,3 C 15,1 C 70 % 1015,5 hPa 0,0 l/m 0 min 0 min 0,5 UV-I 221 W/m 7,7 km/h (2 Bft)
16.06.2013 09:48 15,3 C 15,1 C 71 % 1015,5 hPa 0,0 l/m 0 min 0 min 0,5 UV-I 236 W/m 10,3 km/h (2 Bft)
16.06.2013 09:50 15,3 C 15,7 C 70 % 1015,5 hPa 0,0 l/m 0 min 0 min 0,6 UV-I 237 W/m 5,1 km/h (1 Bft)
16.06.2013 09:52 15,3 C 15,7 C 71 % 1015,6 hPa 0,0 l/m 0 min 0 min 0,6 UV-I 243 W/m 10,3 km/h (2 Bft)
16.06.2013 09:54 15,3 C 15,7 C 70 % 1015,6 hPa 0,0 l/m 0 min 0 min 0,7 UV-I 246 W/m 10,3 km/h (2 Bft)
16.06.2013 09:56 15,3 C 15,7 C 69 % 1015,6 hPa 0,0 l/m 0 min 0 min 0,7 UV-I 255 W/m 10,3 km/h (2 Bft)
16.06.2013 09:58 15,4 C 15,7 C 70 % 1015,5 hPa 0,0 l/m 0 min 0 min 0,8 UV-I 265 W/m 0,0 km/h (0 Bft)
16.06.2013 10:00 15,4 C 15,7 C 70 % 1015,5 hPa 0,0 l/m 0 min 0 min 0,8 UV-I 258 W/m 5,1 km/h (1 Bft)
16.06.2013 10:02 15,4 C 15,7 C 71 % 1015,6 hPa 0,0 l/m 0 min 0 min 0,8 UV-I 253 W/m 7,7 km/h (2 Bft)
16.06.2013 10:06 15,6 C 16,2 C 70 % 1015,5 hPa 0,0 l/m 0 min 0 min 0,8 UV-I 255 W/m 7,7 km/h (2 Bft)
16.06.2013 10:08 15,6 C 16,2 C 70 % 1015,6 hPa 0,0 l/m 0 min 0 min 0,9 UV-I 251 W/m 5,1 km/h (1 Bft)
16.06.2013 10:10 15,7 C 16,2 C 71 % 1015,6 hPa 0,0 l/m 0 min 0 min 0,9 UV-I 255 W/m 10,3 km/h (2 Bft)
16.06.2013 10:12 15,7 C 16,2 C 71 % 1015,6 hPa 0,0 l/m 0 min 0 min 1,0 UV-I 272 W/m 7,7 km/h (2 Bft)
16.06.2013 10:14 15,8 C 16,2 C 70 % 1015,6 hPa 0,0 l/m 0 min 0 min 1,0 UV-I 260 W/m 2,6 km/h (1 Bft)
16.06.2013 10:16 15,8 C 16,2 C 69 % 1015,6 hPa 0,0 l/m 0 min 0 min 1,1 UV-I 250 W/m 5,1 km/h (1 Bft)
16.06.2013 10:18 15,8 C 16,2 C 69 % 1015,6 hPa 0,0 l/m 0 min 0 min 1,3 UV-I 287 W/m 7,7 km/h (2 Bft)
16.06.2013 10:20 15,9 C 16,2 C 69 % 1015,5 hPa 0,0 l/m 2 min 0 min 1,7 UV-I 403 W/m 5,1 km/h (1 Bft)
16.06.2013 10:22 15,9 C 17,3 C 69 % 1015,6 hPa 0,0 l/m 2 min 0 min 1,8 UV-I 455 W/m 5,1 km/h (1 Bft)
16.06.2013 10:24 16,0 C 17,9 C 68 % 1015,6 hPa 0,0 l/m 2 min 0 min 2,4 UV-I 454 W/m 10,3 km/h (2 Bft)
16.06.2013 10:26 16,1 C 19,0 C 68 % 1015,6 hPa 0,0 l/m 2 min 0 min 2,1 UV-I 559 W/m 12,9 km/h (3 Bft)
16.06.2013 10:28 16,2 C 19,0 C 68 % 1015,5 hPa 0,0 l/m 2 min 0 min 1,7 UV-I 413 W/m 10,3 km/h (2 Bft)
16.06.2013 10:30 16,3 C 18,4 C 68 % 1015,5 hPa 0,0 l/m 0 min 0 min 1,7 UV-I 367 W/m 10,3 km/h (2 Bft)
16.06.2013 10:32 16,4 C 17,9 C 67 % 1015,5 hPa 0,0 l/m 2 min 0 min 1,9 UV-I 418 W/m 7,7 km/h (2 Bft)
16.06.2013 10:34 16,5 C 17,9 C 67 % 1015,5 hPa 0,0 l/m 2 min 0 min 1,9 UV-I 424 W/m 2,6 km/h (1 Bft)
16.06.2013 10:36 16,7 C 18,4 C 67 % 1015,5 hPa 0,0 l/m 2 min 0 min 2,1 UV-I 485 W/m 2,6 km/h (1 Bft)
16.06.2013 10:38 16,8 C 18,4 C 67 % 1015,5 hPa 0,0 l/m 2 min 0 min 1,9 UV-I 429 W/m 18,0 km/h (3 Bft)
16.06.2013 10:40 16,8 C 18,4 C 67 % 1015,4 hPa 0,0 l/m 2 min 0 min 1,8 UV-I 399 W/m 0,0 km/h (0 Bft)
16.06.2013 10:42 16,9 C 18,4 C 66 % 1015,5 hPa 0,0 l/m 0 min 0 min 1,6 UV-I 374 W/m 0,0 km/h (0 Bft)
16.06.2013 10:44 17,0 C 18,4 C 66 % 1015,4 hPa 0,0 l/m 0 min 0 min 1,5 UV-I 366 W/m 10,3 km/h (2 Bft)
16.06.2013 10:46 16,9 C 17,9 C 65 % 1015,5 hPa 0,0 l/m 0 min 0 min 1,5 UV-I 338 W/m 18,0 km/h (3 Bft)
16.06.2013 10:48 16,9 C 17,9 C 65 % 1015,4 hPa 0,0 l/m 0 min 0 min 1,4 UV-I 332 W/m 10,3 km/h (2 Bft)
16.06.2013 10:50 16,8 C 17,9 C 67 % 1015,5 hPa 0,0 l/m 0 min 0 min 1,4 UV-I 336 W/m 7,7 km/h (2 Bft)
16.06.2013 10:52 16,8 C 17,9 C 67 % 1015,5 hPa 0,0 l/m 0 min 0 min 1,4 UV-I 345 W/m 10,3 km/h (2 Bft)
16.06.2013 10:54 16,8 C 17,9 C 66 % 1015,5 hPa 0,0 l/m 0 min 0 min 1,5 UV-I 353 W/m 12,9 km/h (3 Bft)
16.06.2013 10:56 16,7 C 17,3 C 66 % 1015,4 hPa 0,0 l/m 0 min 0 min 1,5 UV-I 360 W/m 10,3 km/h (2 Bft)
16.06.2013 10:58 16,7 C 17,3 C 68 % 1015,5 hPa 0,0 l/m 0 min 0 min 1,3 UV-I 313 W/m 7,7 km/h (2 Bft)
16.06.2013 11:00 16,8 C 17,3 C 66 % 1015,5 hPa 0,0 l/m 0 min 0 min 1,1 UV-I 283 W/m 25,7 km/h (4 Bft)
16.06.2013 11:02 16,8 C 17,3 C 68 % 1015,5 hPa 0,0 l/m 0 min 0 min 1,1 UV-I 279 W/m 7,7 km/h (2 Bft)
16.06.2013 11:06 16,7 C 16,8 C 67 % 1015,5 hPa 0,0 l/m 0 min 0 min 1,0 UV-I 262 W/m 15,4 km/h (3 Bft)
16.06.2013 11:08 16,7 C 16,8 C 67 % 1015,5 hPa 0,0 l/m 0 min 0 min 1,1 UV-I 271 W/m 15,4 km/h (3 Bft)
16.06.2013 11:10 16,7 C 16,8 C 68 % 1015,5 hPa 0,0 l/m 0 min 0 min 1,3 UV-I 308 W/m 7,7 km/h (2 Bft)
16.06.2013 11:12 16,8 C 17,3 C 67 % 1015,5 hPa 0,0 l/m 0 min 0 min 1,5 UV-I 315 W/m 15,4 km/h (3 Bft)
16.06.2013 11:14 16,9 C 17,3 C 67 % 1015,4 hPa 0,0 l/m 0 min 0 min 1,6 UV-I 353 W/m 7,7 km/h (2 Bft)
16.06.2013 11:16 17,0 C 17,9 C 68 % 1015,5 hPa 0,0 l/m 0 min 0 min 1,8 UV-I 403 W/m 10,3 km/h (2 Bft)
16.06.2013 11:18 17,2 C 17,9 C 68 % 1015,5 hPa 0,0 l/m 2 min 0 min 2,1 UV-I 438 W/m 10,3 km/h (2 Bft)
16.06.2013 11:20 17,2 C 18,4 C 66 % 1015,5 hPa 0,0 l/m 2 min 0 min 2,3 UV-I 485 W/m 12,9 km/h (3 Bft)
16.06.2013 11:22 17,3 C 18,4 C 67 % 1015,5 hPa 0,0 l/m 2 min 0 min 2,4 UV-I 534 W/m 10,3 km/h (2 Bft)
16.06.2013 11:24 17,4 C 19,0 C 67 % 1015,5 hPa 0,0 l/m 2 min 0 min 2,2 UV-I 446 W/m 10,3 km/h (2 Bft)
16.06.2013 11:26 17,6 C 18,4 C 64 % 1015,5 hPa 0,0 l/m 0 min 0 min 2,1 UV-I 399 W/m 18,0 km/h (3 Bft)
16.06.2013 11:28 17,4 C 17,9 C 64 % 1015,5 hPa 0,0 l/m 0 min 0 min 2,0 UV-I 353 W/m 20,6 km/h (4 Bft)
16.06.2013 11:30 17,3 C 17,9 C 65 % 1015,5 hPa 0,0 l/m 0 min 0 min 2,0 UV-I 338 W/m 12,9 km/h (3 Bft)
16.06.2013 11:32 17,3 C 17,9 C 66 % 1015,5 hPa 0,0 l/m 0 min 0 min 2,1 UV-I 360 W/m 20,6 km/h (4 Bft)
16.06.2013 11:34 17,2 C 17,9 C 65 % 1015,5 hPa 0,0 l/m 0 min 0 min 2,0 UV-I 316 W/m 15,4 km/h (3 Bft)
16.06.2013 11:36 17,2 C 17,9 C 66 % 1015,5 hPa 0,0 l/m 0 min 0 min 2,1 UV-I 381 W/m 7,7 km/h (2 Bft)
16.06.2013 11:38 17,3 C 18,4 C 66 % 1015,5 hPa 0,0 l/m 2 min 0 min 2,3 UV-I 462 W/m 0,0 km/h (0 Bft)
16.06.2013 11:40 17,6 C 19,6 C 67 % 1015,4 hPa 0,0 l/m 2 min 0 min 2,4 UV-I 547 W/m 0,0 km/h (0 Bft)
16.06.2013 11:42 17,7 C 19,6 C 65 % 1015,4 hPa 0,0 l/m 2 min 0 min 2,4 UV-I 499 W/m 0,0 km/h (0 Bft)
16.06.2013 11:44 18,0 C 20,1 C 66 % 1015,4 hPa 0,0 l/m 0 min 0 min 2,1 UV-I 425 W/m 7,7 km/h (2 Bft)
16.06.2013 11:46 18,1 C 19,6 C 68 % 1015,3 hPa 0,0 l/m 0 min 0 min 2,0 UV-I 390 W/m 7,7 km/h (2 Bft)
16.06.2013 11:48 18,1 C 19,6 C 65 % 1015,4 hPa 0,0 l/m 0 min 0 min 2,3 UV-I 432 W/m 15,4 km/h (3 Bft)
16.06.2013 11:50 18,1 C 19,6 C 64 % 1015,4 hPa 0,0 l/m 0 min 0 min 2,1 UV-I 406 W/m 10,3 km/h (2 Bft)
16.06.2013 11:52 18,0 C 19,6 C 64 % 1015,5 hPa 0,0 l/m 0 min 0 min 2,1 UV-I 392 W/m 10,3 km/h (2 Bft)
16.06.2013 11:54 17,9 C 19,0 C 65 % 1015,5 hPa 0,0 l/m 0 min 0 min 2,1 UV-I 408 W/m 12,9 km/h (3 Bft)
16.06.2013 11:56 17,9 C 19,6 C 65 % 1015,5 hPa 0,0 l/m 0 min 0 min 2,2 UV-I 438 W/m 5,1 km/h (1 Bft)
16.06.2013 11:58 18,0 C 19,6 C 65 % 1015,5 hPa 0,0 l/m 2 min 0 min 2,3 UV-I 478 W/m 20,6 km/h (4 Bft)
16.06.2013 12:00 18,0 C 19,6 C 65 % 1015,5 hPa 0,0 l/m 2 min 0 min 2,4 UV-I 494 W/m 12,9 km/h (3 Bft)
16.06.2013 12:02 18,0 C 19,0 C 65 % 1015,5 hPa 0,0 l/m 0 min 0 min 2,1 UV-I 418 W/m 10,3 km/h (2 Bft)
16.06.2013 12:06 18,1 C 19,6 C 67 % 1015,6 hPa 0,0 l/m 2 min 0 min 3,1 UV-I 494 W/m 10,3 km/h (2 Bft)
16.06.2013 12:08 18,1 C 20,1 C 64 % 1015,7 hPa 0,0 l/m 2 min 0 min 2,9 UV-I 591 W/m 15,4 km/h (3 Bft)
16.06.2013 12:10 18,1 C 20,1 C 66 % 1015,6 hPa 0,0 l/m 0 min 0 min 2,4 UV-I 448 W/m 10,3 km/h (2 Bft)
16.06.2013 12:12 18,1 C 19,6 C 65 % 1015,6 hPa 0,0 l/m 2 min 0 min 2,7 UV-I 490 W/m 10,3 km/h (2 Bft)
16.06.2013 12:14 18,1 C 19,6 C 65 % 1015,6 hPa 0,0 l/m 0 min 0 min 2,6 UV-I 454 W/m 23,2 km/h (4 Bft)
16.06.2013 12:16 18,1 C 19,6 C 66 % 1015,6 hPa 0,0 l/m 0 min 0 min 2,4 UV-I 431 W/m 10,3 km/h (2 Bft)
16.06.2013 12:18 18,1 C 19,6 C 65 % 1015,6 hPa 0,0 l/m 0 min 0 min 2,4 UV-I 422 W/m 10,3 km/h (2 Bft)
16.06.2013 12:20 18,1 C 19,6 C 66 % 1015,6 hPa 0,0 l/m 0 min 0 min 2,4 UV-I 443 W/m 10,3 km/h (2 Bft)
16.06.2013 12:22 18,2 C 19,6 C 66 % 1015,6 hPa 0,0 l/m 2 min 0 min 2,8 UV-I 504 W/m 10,3 km/h (2 Bft)
16.06.2013 12:24 18,3 C 20,1 C 65 % 1015,7 hPa 0,0 l/m 2 min 0 min 3,5 UV-I 643 W/m 18,0 km/h (3 Bft)
16.06.2013 12:26 18,3 C 20,7 C 65 % 1015,6 hPa 0,0 l/m 2 min 0 min 3,4 UV-I 591 W/m 10,3 km/h (2 Bft)
16.06.2013 12:28 18,4 C 21,2 C 64 % 1015,6 hPa 0,0 l/m 2 min 0 min 3,1 UV-I 591 W/m 12,9 km/h (3 Bft)
16.06.2013 12:30 18,6 C 21,8 C 66 % 1015,6 hPa 0,0 l/m 2 min 0 min 4,7 UV-I 687 W/m 2,6 km/h (1 Bft)
16.06.2013 12:32 18,9 C 22,9 C 64 % 1015,6 hPa 0,0 l/m 2 min 0 min 4,1 UV-I 740 W/m 5,1 km/h (1 Bft)
16.06.2013 12:34 19,1 C 22,9 C 64 % 1015,6 hPa 0,0 l/m 2 min 0 min 3,9 UV-I 740 W/m 15,4 km/h (3 Bft)
16.06.2013 12:36 19,1 C 22,3 C 63 % 1015,6 hPa 0,0 l/m 2 min 0 min 3,3 UV-I 575 W/m 12,9 km/h (3 Bft)
16.06.2013 12:38 19,0 C 22,3 C 63 % 1015,7 hPa 0,0 l/m 2 min 0 min 3,0 UV-I 554 W/m 18,0 km/h (3 Bft)
16.06.2013 12:40 19,0 C 22,3 C 66 % 1015,6 hPa 0,0 l/m 2 min 0 min 3,6 UV-I 624 W/m 12,9 km/h (3 Bft)
16.06.2013 12:42 19,0 C 21,8 C 62 % 1015,7 hPa 0,0 l/m 2 min 0 min 3,2 UV-I 536 W/m 18,0 km/h (3 Bft)
16.06.2013 12:44 18,9 C 21,8 C 63 % 1015,7 hPa 0,0 l/m 2 min 0 min 3,1 UV-I 541 W/m 18,0 km/h (3 Bft)
16.06.2013 12:46 18,9 C 21,8 C 64 % 1015,8 hPa 0,0 l/m 2 min 0 min 3,4 UV-I 570 W/m 7,7 km/h (2 Bft)
16.06.2013 12:48 18,9 C 21,2 C 62 % 1015,7 hPa 0,0 l/m 2 min 0 min 2,9 UV-I 520 W/m 23,2 km/h (4 Bft)
16.06.2013 12:50 18,8 C 21,2 C 63 % 1015,7 hPa 0,0 l/m 2 min 0 min 2,8 UV-I 499 W/m 10,3 km/h (2 Bft)
16.06.2013 12:52 18,8 C 21,2 C 63 % 1015,7 hPa 0,0 l/m 2 min 0 min 3,3 UV-I 582 W/m 12,9 km/h (3 Bft)
16.06.2013 12:54 18,9 C 21,2 C 63 % 1015,7 hPa 0,0 l/m 2 min 0 min 3,5 UV-I 636 W/m 18,0 km/h (3 Bft)
16.06.2013 12:56 18,9 C 21,2 C 63 % 1015,7 hPa 0,0 l/m 2 min 0 min 3,0 UV-I 524 W/m 15,4 km/h (3 Bft)
16.06.2013 12:58 18,9 C 21,2 C 64 % 1015,8 hPa 0,0 l/m 2 min 0 min 3,5 UV-I 624 W/m 7,7 km/h (2 Bft)
16.06.2013 13:00 19,0 C 21,2 C 64 % 1015,8 hPa 0,0 l/m 2 min 0 min 3,4 UV-I 622 W/m 7,7 km/h (2 Bft)
16.06.2013 13:02 19,1 C 21,8 C 62 % 1015,7 hPa 0,0 l/m 2 min 0 min 3,6 UV-I 645 W/m 18,0 km/h (3 Bft)
16.06.2013 13:06 19,3 C 22,3 C 62 % 1015,8 hPa 0,0 l/m 2 min 0 min 3,3 UV-I 670 W/m 23,2 km/h (4 Bft)
16.06.2013 13:08 19,3 C 22,3 C 63 % 1015,8 hPa 0,0 l/m 2 min 0 min 3,2 UV-I 671 W/m 7,7 km/h (2 Bft)
16.06.2013 13:10 19,4 C 22,9 C 62 % 1015,8 hPa 0,0 l/m 2 min 0 min 3,3 UV-I 591 W/m 15,4 km/h (3 Bft)
16.06.2013 13:12 19,7 C 23,4 C 63 % 1015,8 hPa 0,0 l/m 2 min 0 min 3,2 UV-I 591 W/m 10,3 km/h (2 Bft)
16.06.2013 13:14 19,6 C 23,4 C 62 % 1015,7 hPa 0,0 l/m 2 min 0 min 3,4 UV-I 772 W/m 15,4 km/h (3 Bft)
16.06.2013 13:16 19,7 C 24,0 C 63 % 1015,8 hPa 0,0 l/m 2 min 0 min 3,4 UV-I 789 W/m 10,3 km/h (2 Bft)
16.06.2013 13:18 19,7 C 24,6 C 62 % 1015,8 hPa 0,0 l/m 2 min 0 min 3,3 UV-I 856 W/m 10,3 km/h (2 Bft)
16.06.2013 13:20 19,8 C 25,1 C 61 % 1015,8 hPa 0,0 l/m 2 min 0 min 3,4 UV-I 868 W/m 12,9 km/h (3 Bft)
16.06.2013 13:22 19,7 C 24,6 C 62 % 1015,8 hPa 0,0 l/m 2 min 0 min 3,4 UV-I 759 W/m 18,0 km/h (3 Bft)
16.06.2013 13:24 19,8 C 23,4 C 60 % 1015,9 hPa 0,0 l/m 2 min 0 min 3,2 UV-I 759 W/m 12,9 km/h (3 Bft)
16.06.2013 13:26 19,7 C 23,4 C 61 % 1015,8 hPa 0,0 l/m 2 min 0 min 3,4 UV-I 499 W/m 15,4 km/h (3 Bft)
16.06.2013 13:28 19,8 C 23,4 C 63 % 1015,7 hPa 0,0 l/m 2 min 0 min 3,1 UV-I 882 W/m 10,3 km/h (2 Bft)
16.06.2013 13:30 19,9 C 22,9 C 62 % 1015,8 hPa 0,0 l/m 0 min 0 min 2,9 UV-I 455 W/m 7,7 km/h (2 Bft)
16.06.2013 13:32 19,8 C 22,9 C 62 % 1015,9 hPa 0,0 l/m 0 min 0 min 3,0 UV-I 473 W/m 18,0 km/h (3 Bft)
16.06.2013 13:34 19,7 C 21,8 C 60 % 1015,8 hPa 0,0 l/m 0 min 0 min 3,2 UV-I 468 W/m 18,0 km/h (3 Bft)
16.06.2013 13:36 19,6 C 22,9 C 60 % 1015,8 hPa 0,0 l/m 2 min 0 min 3,3 UV-I 796 W/m 25,7 km/h (4 Bft)
16.06.2013 13:38 19,6 C 22,9 C 61 % 1015,8 hPa 0,0 l/m 2 min 0 min 3,4 UV-I 737 W/m 7,7 km/h (2 Bft)
16.06.2013 13:40 19,8 C 23,4 C 62 % 1015,8 hPa 0,0 l/m 2 min 0 min 3,5 UV-I 726 W/m 18,0 km/h (3 Bft)
16.06.2013 13:42 19,9 C 23,4 C 61 % 1015,8 hPa 0,0 l/m 2 min 0 min 3,7 UV-I 668 W/m 10,3 km/h (2 Bft)
16.06.2013 13:44 20,0 C 22,9 C 60 % 1015,8 hPa 0,0 l/m 2 min 0 min 3,5 UV-I 649 W/m 10,3 km/h (2 Bft)
16.06.2013 13:46 20,0 C 22,9 C 60 % 1015,7 hPa 0,0 l/m 2 min 0 min 3,3 UV-I 584 W/m 10,3 km/h (2 Bft)
16.06.2013 13:48 20,0 C 22,3 C 60 % 1015,8 hPa 0,0 l/m 2 min 0 min 3,3 UV-I 617 W/m 12,9 km/h (3 Bft)
16.06.2013 13:50 20,0 C 22,3 C 60 % 1015,7 hPa 0,0 l/m 2 min 0 min 3,3 UV-I 594 W/m 12,9 km/h (3 Bft)
16.06.2013 13:52 20,1 C 22,9 C 60 % 1015,6 hPa 0,0 l/m 2 min 0 min 3,3 UV-I 617 W/m 10,3 km/h (2 Bft)
16.06.2013 13:54 20,1 C 22,3 C 59 % 1015,8 hPa 0,0 l/m 2 min 0 min 3,5 UV-I 657 W/m 10,3 km/h (2 Bft)
16.06.2013 13:56 20,3 C 22,9 C 59 % 1015,6 hPa 0,0 l/m 2 min 0 min 3,4 UV-I 592 W/m 5,1 km/h (1 Bft)
16.06.2013 13:58 20,4 C 22,9 C 60 % 1015,7 hPa 0,0 l/m 2 min 0 min 3,3 UV-I 599 W/m 0,0 km/h (0 Bft)
16.06.2013 14:00 20,5 C 22,9 C 57 % 1015,6 hPa 0,0 l/m 2 min 0 min 3,3 UV-I 568 W/m 18,0 km/h (3 Bft)
16.06.2013 14:02 20,4 C 22,9 C 58 % 1015,6 hPa 0,0 l/m 2 min 0 min 3,3 UV-I 582 W/m 7,7 km/h (2 Bft)
16.06.2013 14:06 20,7 C 22,9 C 61 % 1015,5 hPa 0,0 l/m 2 min 0 min 3,1 UV-I 524 W/m 10,3 km/h (2 Bft)
16.06.2013 14:08 20,6 C 22,3 C 58 % 1015,5 hPa 0,0 l/m 2 min 0 min 3,1 UV-I 522 W/m 10,3 km/h (2 Bft)
16.06.2013 14:10 20,2 C 22,3 C 57 % 1015,4 hPa 0,0 l/m 2 min 0 min 3,2 UV-I 554 W/m 10,3 km/h (2 Bft)
16.06.2013 14:12 20,2 C 22,3 C 61 % 1015,4 hPa 0,0 l/m 2 min 0 min 3,4 UV-I 594 W/m 10,3 km/h (2 Bft)
16.06.2013 14:14 20,3 C 22,3 C 59 % 1015,4 hPa 0,0 l/m 2 min 0 min 3,4 UV-I 589 W/m 15,4 km/h (3 Bft)
16.06.2013 14:16 20,4 C 22,3 C 59 % 1015,4 hPa 0,0 l/m 2 min 0 min 3,5 UV-I 559 W/m 2,6 km/h (1 Bft)
16.06.2013 14:18 20,3 C 22,3 C 58 % 1015,4 hPa 0,0 l/m 2 min 0 min 4,3 UV-I 715 W/m 10,3 km/h (2 Bft)
16.06.2013 14:20 20,3 C 22,9 C 57 % 1015,3 hPa 0,0 l/m 2 min 0 min 4,9 UV-I 679 W/m 10,3 km/h (2 Bft)
16.06.2013 14:22 20,7 C 23,4 C 60 % 1015,3 hPa 0,0 l/m 2 min 0 min 4,2 UV-I 828 W/m 2,6 km/h (1 Bft)
16.06.2013 14:24 20,9 C 23,4 C 59 % 1015,3 hPa 0,0 l/m 2 min 0 min 3,4 UV-I 497 W/m 10,3 km/h (2 Bft)
16.06.2013 14:26 20,8 C 22,9 C 56 % 1015,4 hPa 0,0 l/m 2 min 0 min 4,4 UV-I 751 W/m 10,3 km/h (2 Bft)
16.06.2013 14:28 20,8 C 23,4 C 57 % 1015,4 hPa 0,0 l/m 2 min 0 min 4,6 UV-I 812 W/m 2,6 km/h (1 Bft)
16.06.2013 14:30 20,9 C 23,4 C 56 % 1015,4 hPa 0,0 l/m 2 min 0 min 3,9 UV-I 710 W/m 18,0 km/h (3 Bft)
16.06.2013 14:32 20,8 C 22,9 C 56 % 1015,4 hPa 0,0 l/m 2 min 0 min 3,6 UV-I 578 W/m 7,7 km/h (2 Bft)
16.06.2013 14:34 20,8 C 22,9 C 59 % 1015,4 hPa 0,0 l/m 2 min 0 min 3,7 UV-I 605 W/m 12,9 km/h (3 Bft)
16.06.2013 14:36 20,9 C 22,9 C 57 % 1015,4 hPa 0,0 l/m 2 min 0 min 3,8 UV-I 670 W/m 2,6 km/h (1 Bft)
16.06.2013 14:38 20,8 C 23,4 C 58 % 1015,4 hPa 0,0 l/m 2 min 0 min 3,4 UV-I 566 W/m 2,6 km/h (1 Bft)
16.06.2013 14:40 20,8 C 22,9 C 56 % 1015,4 hPa 0,0 l/m 2 min 0 min 3,1 UV-I 483 W/m 15,4 km/h (3 Bft)
16.06.2013 14:42 20,7 C 22,9 C 57 % 1015,5 hPa 0,0 l/m 2 min 0 min 4,1 UV-I 696 W/m 7,7 km/h (2 Bft)
16.06.2013 14:44 20,7 C 22,9 C 57 % 1015,5 hPa 0,0 l/m 2 min 0 min 4,0 UV-I 719 W/m 12,9 km/h (3 Bft)
16.06.2013 14:46 20,9 C 23,4 C 57 % 1015,4 hPa 0,0 l/m 2 min 0 min 4,4 UV-I 768 W/m 12,9 km/h (3 Bft)
16.06.2013 14:48 21,1 C 24,0 C 57 % 1015,4 hPa 0,0 l/m 2 min 0 min 4,6 UV-I 874 W/m 7,7 km/h (2 Bft)
16.06.2013 14:50 21,3 C 24,0 C 55 % 1015,5 hPa 0,0 l/m 2 min 0 min 4,0 UV-I 773 W/m 7,7 km/h (2 Bft)
16.06.2013 14:52 21,3 C 24,0 C 55 % 1015,4 hPa 0,0 l/m 2 min 0 min 3,4 UV-I 582 W/m 5,1 km/h (1 Bft)
16.06.2013 14:54 21,4 C 24,0 C 57 % 1015,4 hPa 0,0 l/m 2 min 0 min 3,2 UV-I 575 W/m 10,3 km/h (2 Bft)
16.06.2013 14:56 21,3 C 24,0 C 58 % 1015,3 hPa 0,0 l/m 2 min 0 min 3,1 UV-I 534 W/m 10,3 km/h (2 Bft)
16.06.2013 14:58 21,3 C 24,0 C 56 % 1015,3 hPa 0,0 l/m 2 min 0 min 3,2 UV-I 603 W/m 10,3 km/h (2 Bft)
16.06.2013 15:00 21,2 C 23,4 C 56 % 1015,3 hPa 0,0 l/m 2 min 0 min 3,3 UV-I 517 W/m 12,9 km/h (3 Bft)
16.06.2013 15:02 20,8 C 22,9 C 56 % 1015,3 hPa 0,0 l/m 2 min 0 min 3,1 UV-I 510 W/m 2,6 km/h (1 Bft)
16.06.2013 15:06 20,9 C 23,4 C 58 % 1015,4 hPa 0,0 l/m 2 min 0 min 3,9 UV-I 751 W/m 7,7 km/h (2 Bft)
16.06.2013 15:08 21,1 C 23,4 C 57 % 1015,4 hPa 0,0 l/m 2 min 0 min 4,2 UV-I 761 W/m 7,7 km/h (2 Bft)
16.06.2013 15:10 21,2 C 23,4 C 58 % 1015,4 hPa 0,0 l/m 2 min 0 min 3,4 UV-I 575 W/m 0,0 km/h (0 Bft)
16.06.2013 15:12 21,3 C 23,4 C 58 % 1015,4 hPa 0,0 l/m 2 min 0 min 4,1 UV-I 582 W/m 5,1 km/h (1 Bft)
16.06.2013 15:14 21,3 C 23,4 C 53 % 1015,4 hPa 0,0 l/m 2 min 0 min 4,1 UV-I 633 W/m 10,3 km/h (2 Bft)
16.06.2013 15:16 21,3 C 23,4 C 55 % 1015,3 hPa 0,0 l/m 2 min 0 min 4,2 UV-I 589 W/m 2,6 km/h (1 Bft)
16.06.2013 15:18 21,3 C 23,4 C 55 % 1015,3 hPa 0,0 l/m 2 min 0 min 3,8 UV-I 656 W/m 12,9 km/h (3 Bft)
16.06.2013 15:20 21,4 C 24,0 C 56 % 1015,3 hPa 0,0 l/m 2 min 0 min 5,2 UV-I 656 W/m 10,3 km/h (2 Bft)
16.06.2013 15:22 21,8 C 24,6 C 56 % 1015,3 hPa 0,0 l/m 2 min 0 min 5,1 UV-I 656 W/m 2,6 km/h (1 Bft)
16.06.2013 15:24 22,2 C 24,6 C 54 % 1015,4 hPa 0,0 l/m 2 min 0 min 5,0 UV-I 983 W/m 0,0 km/h (0 Bft)
16.06.2013 15:26 22,2 C 24,6 C 55 % 1015,2 hPa 0,0 l/m 2 min 0 min 4,6 UV-I 856 W/m 10,3 km/h (2 Bft)
16.06.2013 15:28 22,4 C 24,0 C 54 % 1015,3 hPa 0,0 l/m 2 min 0 min 4,0 UV-I 823 W/m 10,3 km/h (2 Bft)
16.06.2013 15:30 22,3 C 24,0 C 52 % 1015,3 hPa 0,0 l/m 2 min 0 min 3,6 UV-I 823 W/m 7,7 km/h (2 Bft)
16.06.2013 15:32 22,2 C 24,0 C 54 % 1015,3 hPa 0,0 l/m 2 min 0 min 4,0 UV-I 823 W/m 7,7 km/h (2 Bft)
16.06.2013 15:34 22,2 C 24,6 C 54 % 1015,3 hPa 0,0 l/m 2 min 0 min 3,0 UV-I 823 W/m 2,6 km/h (1 Bft)
16.06.2013 15:36 21,9 C 24,0 C 53 % 1015,4 hPa 0,0 l/m 2 min 0 min 3,0 UV-I 547 W/m 12,9 km/h (3 Bft)
16.06.2013 15:38 21,7 C 24,0 C 54 % 1015,4 hPa 0,0 l/m 2 min 0 min 3,2 UV-I 462 W/m 5,1 km/h (1 Bft)
16.06.2013 15:40 21,9 C 24,0 C 56 % 1015,3 hPa 0,0 l/m 2 min 0 min 4,4 UV-I 591 W/m 12,9 km/h (3 Bft)
16.06.2013 15:42 22,2 C 24,6 C 52 % 1015,3 hPa 0,0 l/m 2 min 0 min 3,1 UV-I 1014 W/m 15,4 km/h (3 Bft)
16.06.2013 15:44 22,4 C 24,6 C 52 % 1015,4 hPa 0,0 l/m 2 min 0 min 4,1 UV-I 548 W/m 7,7 km/h (2 Bft)
16.06.2013 15:46 22,4 C 24,6 C 54 % 1015,3 hPa 0,0 l/m 2 min 0 min 3,4 UV-I 605 W/m 12,9 km/h (3 Bft)
16.06.2013 15:48 22,6 C 24,6 C 53 % 1015,3 hPa 0,0 l/m 2 min 0 min 2,8 UV-I 652 W/m 12,9 km/h (3 Bft)
16.06.2013 15:50 22,3 C 24,0 C 52 % 1015,4 hPa 0,0 l/m 2 min 0 min 2,4 UV-I 496 W/m 5,1 km/h (1 Bft)
16.06.2013 15:52 22,0 C 23,4 C 52 % 1015,5 hPa 0,0 l/m 2 min 0 min 2,6 UV-I 475 W/m 5,1 km/h (1 Bft)
16.06.2013 15:54 21,8 C 23,4 C 52 % 1015,5 hPa 0,0 l/m 0 min 0 min 1,9 UV-I 378 W/m 12,9 km/h (3 Bft)
16.06.2013 15:56 21,4 C 22,9 C 53 % 1015,4 hPa 0,0 l/m 0 min 0 min 1,5 UV-I 287 W/m 10,3 km/h (2 Bft)
16.06.2013 15:58 21,2 C 22,3 C 54 % 1015,5 hPa 0,0 l/m 0 min 0 min 1,3 UV-I 250 W/m 7,7 km/h (2 Bft)
16.06.2013 16:00 21,0 C 21,8 C 53 % 1015,4 hPa 0,0 l/m 0 min 0 min 1,3 UV-I 271 W/m 2,6 km/h (1 Bft)
16.06.2013 16:02 20,8 C 21,8 C 55 % 1015,4 hPa 0,0 l/m 0 min 0 min 1,5 UV-I 309 W/m 2,6 km/h (1 Bft)
16.06.2013 16:06 20,7 C 21,8 C 52 % 1015,4 hPa 0,0 l/m 0 min 0 min 1,6 UV-I 346 W/m 10,3 km/h (2 Bft)
16.06.2013 16:08 20,6 C 21,8 C 54 % 1015,3 hPa 0,0 l/m 0 min 0 min 1,6 UV-I 339 W/m 2,6 km/h (1 Bft)
16.06.2013 16:10 20,6 C 21,8 C 54 % 1015,3 hPa 0,0 l/m 0 min 0 min 1,6 UV-I 357 W/m 10,3 km/h (2 Bft)
16.06.2013 16:12 20,6 C 21,8 C 54 % 1015,3 hPa 0,0 l/m 0 min 0 min 1,8 UV-I 408 W/m 7,7 km/h (2 Bft)
16.06.2013 16:14 20,7 C 21,8 C 56 % 1015,4 hPa 0,0 l/m 2 min 0 min 2,0 UV-I 455 W/m 2,6 km/h (1 Bft)
16.06.2013 16:16 20,8 C 22,3 C 55 % 1015,3 hPa 0,0 l/m 0 min 0 min 1,8 UV-I 396 W/m 0,0 km/h (0 Bft)
16.06.2013 16:18 20,9 C 22,3 C 53 % 1015,3 hPa 0,0 l/m 0 min 0 min 1,8 UV-I 392 W/m 2,6 km/h (1 Bft)
16.06.2013 16:20 20,8 C 21,8 C 54 % 1015,5 hPa 0,0 l/m 2 min 0 min 1,8 UV-I 406 W/m 5,1 km/h (1 Bft)
16.06.2013 16:22 20,9 C 21,8 C 55 % 1015,5 hPa 0,0 l/m 2 min 0 min 1,8 UV-I 411 W/m 2,6 km/h (1 Bft)
16.06.2013 16:24 21,1 C 22,3 C 55 % 1015,5 hPa 0,0 l/m 0 min 0 min 1,7 UV-I 383 W/m 5,1 km/h (1 Bft)
16.06.2013 16:26 21,1 C 22,3 C 53 % 1015,6 hPa 0,0 l/m 0 min 0 min 1,6 UV-I 388 W/m 0,0 km/h (0 Bft)
16.06.2013 16:28 21,1 C 22,3 C 53 % 1015,6 hPa 0,0 l/m 2 min 0 min 1,7 UV-I 399 W/m 2,6 km/h (1 Bft)
16.06.2013 16:30 21,0 C 21,8 C 52 % 1015,7 hPa 0,0 l/m 0 min 0 min 1,4 UV-I 304 W/m 18,0 km/h (3 Bft)
16.06.2013 16:32 20,8 C 21,2 C 52 % 1015,6 hPa 0,0 l/m 0 min 0 min 1,2 UV-I 269 W/m 10,3 km/h (2 Bft)
16.06.2013 16:34 20,7 C 21,2 C 54 % 1015,6 hPa 0,0 l/m 0 min 0 min 1,1 UV-I 265 W/m 12,9 km/h (3 Bft)
16.06.2013 16:36 20,7 C 21,2 C 55 % 1015,6 hPa 0,0 l/m 0 min 0 min 1,0 UV-I 269 W/m 5,1 km/h (1 Bft)
16.06.2013 16:38 20,7 C 21,2 C 54 % 1015,4 hPa 0,0 l/m 0 min 0 min 1,0 UV-I 264 W/m 2,6 km/h (1 Bft)
16.06.2013 16:40 20,6 C 21,2 C 54 % 1015,5 hPa 0,0 l/m 0 min 0 min 0,9 UV-I 239 W/m 5,1 km/h (1 Bft)
16.06.2013 16:42 20,6 C 21,2 C 55 % 1015,5 hPa 0,0 l/m 0 min 0 min 0,8 UV-I 216 W/m 2,6 km/h (1 Bft)
16.06.2013 16:44 20,5 C 20,7 C 55 % 1015,5 hPa 0,0 l/m 0 min 0 min 0,6 UV-I 190 W/m 7,7 km/h (2 Bft)
16.06.2013 16:46 20,4 C 20,7 C 54 % 1015,6 hPa 0,0 l/m 0 min 0 min 0,5 UV-I 176 W/m 2,6 km/h (1 Bft)
16.06.2013 16:48 20,3 C 20,1 C 55 % 1015,6 hPa 0,0 l/m 0 min 0 min 0,5 UV-I 179 W/m 0,0 km/h (0 Bft)
16.06.2013 16:50 20,3 C 20,1 C 53 % 1015,5 hPa 0,0 l/m 0 min 0 min 0,6 UV-I 209 W/m 2,6 km/h (1 Bft)
16.06.2013 16:52 20,2 C 20,1 C 54 % 1015,4 hPa 0,0 l/m 0 min 2 min 0,7 UV-I 218 W/m 2,6 km/h (1 Bft)
16.06.2013 16:54 20,2 C 19,0 C 57 % 1015,4 hPa 0,0 l/m 0 min 2 min 0,6 UV-I 216 W/m 0,0 km/h (0 Bft)
16.06.2013 16:56 20,2 C 18,4 C 56 % 1015,4 hPa 0,0 l/m 0 min 2 min 0,6 UV-I 195 W/m 0,0 km/h (0 Bft)
16.06.2013 16:58 20,0 C 18,4 C 58 % 1015,5 hPa 0,0 l/m 0 min 2 min 0,5 UV-I 197 W/m 0,0 km/h (0 Bft)
16.06.2013 17:00 19,9 C 17,9 C 57 % 1015,4 hPa 0,0 l/m 0 min 2 min 0,5 UV-I 197 W/m 2,6 km/h (1 Bft)
16.06.2013 17:02 19,9 C 19,0 C 60 % 1015,4 hPa 0,0 l/m 0 min 2 min 0,5 UV-I 199 W/m 0,0 km/h (0 Bft)
16.06.2013 17:06 19,9 C 19,6 C 61 % 1015,3 hPa 0,0 l/m 0 min 2 min 0,6 UV-I 225 W/m 0,0 km/h (0 Bft)
16.06.2013 17:08 19,9 C 20,1 C 57 % 1015,3 hPa 0,0 l/m 0 min 2 min 0,6 UV-I 227 W/m 2,6 km/h (1 Bft)
16.06.2013 17:10 19,9 C 20,1 C 58 % 1015,3 hPa 0,0 l/m 0 min 2 min 0,6 UV-I 216 W/m 0,0 km/h (0 Bft)
16.06.2013 17:12 20,0 C 20,1 C 59 % 1015,2 hPa 0,0 l/m 0 min 2 min 0,5 UV-I 199 W/m 2,6 km/h (1 Bft)
16.06.2013 17:14 20,0 C 20,1 C 58 % 1015,1 hPa 0,0 l/m 0 min 0 min 0,0 UV-I 190 W/m 2,6 km/h (1 Bft)
16.06.2013 17:16 20,0 C 20,1 C 58 % 1015,1 hPa 0,0 l/m 0 min 0 min 0,5 UV-I 207 W/m 2,6 km/h (1 Bft)
16.06.2013 17:18 20,0 C 19,6 C 57 % 1015,1 hPa 0,0 l/m 0 min 2 min 0,5 UV-I 214 W/m 0,0 km/h (0 Bft)
16.06.2013 17:20 20,0 C 19,6 C 57 % 1015,1 hPa 0,0 l/m 0 min 2 min 0,5 UV-I 204 W/m 2,6 km/h (1 Bft)
16.06.2013 17:22 20,0 C 19,6 C 59 % 1015,1 hPa 0,0 l/m 0 min 2 min 0,0 UV-I 197 W/m 0,0 km/h (0 Bft)
16.06.2013 17:24 20,0 C 19,6 C 59 % 1015,2 hPa 0,0 l/m 0 min 2 min 0,0 UV-I 190 W/m 10,3 km/h (2 Bft)
16.06.2013 17:26 19,9 C 19,6 C 58 % 1015,2 hPa 0,0 l/m 0 min 2 min 0,0 UV-I 188 W/m 10,3 km/h (2 Bft)
16.06.2013 17:28 19,9 C 19,6 C 60 % 1015,1 hPa 0,0 l/m 0 min 2 min 0,0 UV-I 193 W/m 0,0 km/h (0 Bft)
16.06.2013 17:30 19,9 C 19,6 C 59 % 1015,1 hPa 0,0 l/m 0 min 0 min 0,0 UV-I 197 W/m 2,6 km/h (1 Bft)
16.06.2013 17:32 19,8 C 19,6 C 58 % 1015,0 hPa 0,0 l/m 0 min 0 min 0,0 UV-I 202 W/m 0,0 km/h (0 Bft)
16.06.2013 17:34 19,8 C 19,6 C 59 % 1015,0 hPa 0,0 l/m 0 min 0 min 0,0 UV-I 204 W/m 0,0 km/h (0 Bft)
16.06.2013 17:36 19,8 C 19,6 C 59 % 1015,0 hPa 0,0 l/m 0 min 0 min 0,0 UV-I 193 W/m 0,0 km/h (0 Bft)
16.06.2013 17:38 19,9 C 19,6 C 59 % 1015,1 hPa 0,0 l/m 0 min 0 min 0,0 UV-I 190 W/m 0,0 km/h (0 Bft)
16.06.2013 17:40 19,9 C 20,1 C 57 % 1015,1 hPa 0,0 l/m 0 min 0 min 0,0 UV-I 186 W/m 0,0 km/h (0 Bft)
16.06.2013 17:42 19,9 C 20,1 C 59 % 1015,1 hPa 0,0 l/m 0 min 0 min 0,0 UV-I 178 W/m 0,0 km/h (0 Bft)
16.06.2013 17:44 19,9 C 19,6 C 58 % 1015,1 hPa 0,0 l/m 0 min 0 min 0,0 UV-I 172 W/m 0,0 km/h (0 Bft)
16.06.2013 17:46 19,9 C 19,6 C 61 % 1015,1 hPa 0,0 l/m 0 min 0 min 0,0 UV-I 167 W/m 0,0 km/h (0 Bft)
16.06.2013 17:48 19,9 C 19,6 C 59 % 1015,0 hPa 0,0 l/m 0 min 0 min 0,0 UV-I 167 W/m 0,0 km/h (0 Bft)
16.06.2013 17:50 19,9 C 19,6 C 61 % 1015,0 hPa 0,0 l/m 0 min 0 min 0,0 UV-I 171 W/m 0,0 km/h (0 Bft)
16.06.2013 17:52 19,9 C 19,6 C 58 % 1015,0 hPa 0,0 l/m 0 min 0 min 0,0 UV-I 163 W/m 0,0 km/h (0 Bft)
16.06.2013 17:54 19,8 C 19,6 C 57 % 1014,9 hPa 0,0 l/m 0 min 0 min 0,0 UV-I 163 W/m 0,0 km/h (0 Bft)
16.06.2013 17:56 19,8 C 19,6 C 57 % 1014,9 hPa 0,0 l/m 0 min 0 min 0,0 UV-I 181 W/m 2,6 km/h (1 Bft)
16.06.2013 17:58 19,7 C 19,6 C 60 % 1015,0 hPa 0,0 l/m 0 min 0 min 0,0 UV-I 186 W/m 0,0 km/h (0 Bft)
16.06.2013 18:00 19,7 C 19,6 C 59 % 1015,0 hPa 0,0 l/m 0 min 2 min 0,0 UV-I 178 W/m 0,0 km/h (0 Bft)
16.06.2013 18:02 19,7 C 19,6 C 59 % 1015,0 hPa 0,0 l/m 0 min 0 min 0,0 UV-I 156 W/m 0,0 km/h (0 Bft)
16.06.2013 18:06 19,8 C 19,6 C 59 % 1015,0 hPa 0,0 l/m 0 min 0 min 0,0 UV-I 158 W/m 2,6 km/h (1 Bft)
16.06.2013 18:08 19,7 C 19,6 C 57 % 1015,1 hPa 0,0 l/m 0 min 0 min 0,0 UV-I 155 W/m 2,6 km/h (1 Bft)
16.06.2013 18:10 19,6 C 19,6 C 59 % 1015,1 hPa 0,0 l/m 0 min 0 min 0,0 UV-I 149 W/m 2,6 km/h (1 Bft)
16.06.2013 18:12 19,6 C 19,0 C 59 % 1015,2 hPa 0,0 l/m 0 min 2 min 0,0 UV-I 139 W/m 0,0 km/h (0 Bft)
16.06.2013 18:14 19,6 C 19,0 C 61 % 1015,2 hPa 0,0 l/m 0 min 2 min 0,0 UV-I 128 W/m 0,0 km/h (0 Bft)
16.06.2013 18:16 19,5 C 19,0 C 63 % 1015,2 hPa 0,0 l/m 0 min 0 min 0,0 UV-I 132 W/m 0,0 km/h (0 Bft)
16.06.2013 18:18 19,5 C 19,0 C 62 % 1015,2 hPa 0,0 l/m 0 min 0 min 0,0 UV-I 146 W/m 0,0 km/h (0 Bft)
16.06.2013 18:20 19,5 C 18,4 C 61 % 1015,2 hPa 0,0 l/m 0 min 2 min 0,0 UV-I 156 W/m 0,0 km/h (0 Bft)
16.06.2013 18:22 19,6 C 18,4 C 61 % 1015,1 hPa 0,0 l/m 0 min 0 min 0,0 UV-I 178 W/m 0,0 km/h (0 Bft)
16.06.2013 18:24 19,5 C 19,0 C 60 % 1015,0 hPa 0,0 l/m 0 min 2 min 0,0 UV-I 193 W/m 0,0 km/h (0 Bft)
16.06.2013 18:26 19,6 C 19,0 C 60 % 1015,1 hPa 0,0 l/m 0 min 2 min 0,0 UV-I 227 W/m 0,0 km/h (0 Bft)
16.06.2013 18:28 19,6 C 19,0 C 61 % 1014,9 hPa 0,0 l/m 0 min 2 min 0,0 UV-I 236 W/m 2,6 km/h (1 Bft)
16.06.2013 18:30 19,6 C 19,6 C 61 % 1014,8 hPa 0,0 l/m 0 min 0 min 0,0 UV-I 204 W/m 0,0 km/h (0 Bft)
16.06.2013 18:32 19,6 C 19,6 C 60 % 1014,8 hPa 0,0 l/m 0 min 0 min 0,0 UV-I 199 W/m 7,7 km/h (2 Bft)
16.06.2013 18:34 19,7 C 19,6 C 60 % 1014,8 hPa 0,0 l/m 0 min 0 min 0,0 UV-I 186 W/m 5,1 km/h (1 Bft)
16.06.2013 18:36 19,7 C 19,6 C 60 % 1014,8 hPa 0,0 l/m 0 min 0 min 0,0 UV-I 176 W/m 0,0 km/h (0 Bft)
16.06.2013 18:38 19,8 C 19,6 C 62 % 1014,8 hPa 0,0 l/m 0 min 0 min 0,0 UV-I 183 W/m 0,0 km/h (0 Bft)
16.06.2013 18:40 19,7 C 19,6 C 60 % 1014,8 hPa 0,0 l/m 0 min 0 min 0,0 UV-I 186 W/m 0,0 km/h (0 Bft)
16.06.2013 18:42 19,7 C 19,6 C 58 % 1014,8 hPa 0,0 l/m 0 min 0 min 0,0 UV-I 178 W/m 0,0 km/h (0 Bft)
16.06.2013 18:44 19,7 C 19,6 C 61 % 1014,8 hPa 0,0 l/m 0 min 0 min 0,0 UV-I 163 W/m 0,0 km/h (0 Bft)
16.06.2013 18:46 19,7 C 19,6 C 58 % 1014,8 hPa 0,0 l/m 0 min 0 min 0,0 UV-I 158 W/m 2,6 km/h (1 Bft)
16.06.2013 18:48 19,6 C 19,6 C 57 % 1014,8 hPa 0,0 l/m 0 min 0 min 0,0 UV-I 155 W/m 0,0 km/h (0 Bft)
16.06.2013 18:50 19,5 C 19,6 C 58 % 1014,8 hPa 0,0 l/m 0 min 0 min 0,0 UV-I 156 W/m 0,0 km/h (0 Bft)
16.06.2013 18:52 19,5 C 19,6 C 61 % 1014,8 hPa 0,0 l/m 0 min 0 min 0,0 UV-I 158 W/m 0,0 km/h (0 Bft)
16.06.2013 18:54 19,6 C 19,6 C 60 % 1014,9 hPa 0,0 l/m 0 min 0 min 0,0 UV-I 163 W/m 0,0 km/h (0 Bft)
16.06.2013 18:56 19,6 C 19,6 C 58 % 1014,9 hPa 0,0 l/m 0 min 0 min 0,0 UV-I 160 W/m 0,0 km/h (0 Bft)
16.06.2013 18:58 19,6 C 19,6 C 58 % 1015,0 hPa 0,0 l/m 0 min 0 min 0,0 UV-I 149 W/m 2,6 km/h (1 Bft)
16.06.2013 19:00 19,6 C 19,6 C 59 % 1015,0 hPa 0,0 l/m 0 min 0 min 0,0 UV-I 134 W/m 0,0 km/h (0 Bft)
16.06.2013 19:02 19,6 C 19,6 C 61 % 1015,1 hPa 0,0 l/m 0 min 0 min 0,0 UV-I 118 W/m 0,0 km/h (0 Bft)
16.06.2013 19:06 19,5 C 19,0 C 58 % 1015,2 hPa 0,0 l/m 0 min 0 min 0,0 UV-I 93 W/m 2,6 km/h (1 Bft)
16.06.2013 19:08 19,4 C 19,0 C 58 % 1015,2 hPa 0,0 l/m 0 min 0 min 0,0 UV-I 90 W/m 2,6 km/h (1 Bft)
16.06.2013 19:10 19,4 C 19,0 C 57 % 1015,2 hPa 0,0 l/m 0 min 0 min 0,0 UV-I 90 W/m 2,6 km/h (1 Bft)
16.06.2013 19:12 19,3 C 19,0 C 57 % 1015,3 hPa 0,0 l/m 0 min 0 min 0,0 UV-I 91 W/m 2,6 km/h (1 Bft)
16.06.2013 19:14 19,3 C 18,4 C 58 % 1015,3 hPa 0,0 l/m 0 min 0 min 0,0 UV-I 90 W/m 0,0 km/h (0 Bft)
16.06.2013 19:16 19,3 C 18,4 C 58 % 1015,3 hPa 0,0 l/m 0 min 0 min 0,0 UV-I 81 W/m 0,0 km/h (0 Bft)
16.06.2013 19:18 19,2 C 18,4 C 58 % 1015,3 hPa 0,0 l/m 0 min 0 min 0,0 UV-I 79 W/m 0,0 km/h (0 Bft)
16.06.2013 19:20 19,2 C 18,4 C 58 % 1015,3 hPa 0,0 l/m 0 min 0 min 0,0 UV-I 77 W/m 2,6 km/h (1 Bft)
16.06.2013 19:22 19,2 C 18,4 C 59 % 1015,2 hPa 0,0 l/m 0 min 0 min 0,0 UV-I 81 W/m 0,0 km/h (0 Bft)
16.06.2013 19:24 19,2 C 18,4 C 59 % 1015,2 hPa 0,0 l/m 0 min 0 min 0,0 UV-I 86 W/m 0,0 km/h (0 Bft)
16.06.2013 19:26 19,2 C 18,4 C 59 % 1015,3 hPa 0,0 l/m 0 min 0 min 0,0 UV-I 91 W/m 0,0 km/h (0 Bft)
16.06.2013 19:28 19,1 C 18,4 C 59 % 1015,3 hPa 0,0 l/m 0 min 0 min 0,0 UV-I 97 W/m 0,0 km/h (0 Bft)
16.06.2013 19:30 19,2 C 18,4 C 59 % 1015,3 hPa 0,0 l/m 0 min 0 min 0,0 UV-I 97 W/m 2,6 km/h (1 Bft)
16.06.2013 19:32 19,2 C 18,4 C 59 % 1015,3 hPa 0,0 l/m 0 min 0 min 0,0 UV-I 98 W/m 0,0 km/h (0 Bft)
16.06.2013 19:34 19,2 C 18,4 C 59 % 1015,3 hPa 0,0 l/m 0 min 2 min 0,0 UV-I 97 W/m 0,0 km/h (0 Bft)
16.06.2013 19:36 19,2 C 18,4 C 59 % 1015,3 hPa 0,0 l/m 0 min 0 min 0,0 UV-I 97 W/m 0,0 km/h (0 Bft)
16.06.2013 19:38 19,2 C 18,4 C 59 % 1015,3 hPa 0,0 l/m 0 min 0 min 0,0 UV-I 98 W/m 0,0 km/h (0 Bft)
16.06.2013 19:40 19,2 C 18,4 C 59 % 1015,2 hPa 0,0 l/m 0 min 0 min 0,0 UV-I 104 W/m 2,6 km/h (1 Bft)
16.06.2013 19:42 19,1 C 18,4 C 60 % 1015,2 hPa 0,0 l/m 0 min 0 min 0,0 UV-I 114 W/m 0,0 km/h (0 Bft)
16.06.2013 19:44 19,1 C 18,4 C 60 % 1015,3 hPa 0,0 l/m 0 min 0 min 0,0 UV-I 125 W/m 0,0 km/h (0 Bft)
16.06.2013 19:46 19,1 C 18,4 C 59 % 1015,3 hPa 0,0 l/m 0 min 0 min 0,0 UV-I 139 W/m 2,6 km/h (1 Bft)
16.06.2013 19:48 19,1 C 18,4 C 59 % 1015,2 hPa 0,0 l/m 0 min 0 min 0,0 UV-I 137 W/m 2,6 km/h (1 Bft)
16.06.2013 19:50 19,1 C 18,4 C 59 % 1015,1 hPa 0,0 l/m 0 min 0 min 0,0 UV-I 123 W/m 0,0 km/h (0 Bft)
16.06.2013 19:52 19,1 C 18,4 C 59 % 1015,0 hPa 0,0 l/m 0 min 0 min 0,0 UV-I 105 W/m 2,6 km/h (1 Bft)
16.06.2013 19:54 19,1 C 18,4 C 58 % 1015,0 hPa 0,0 l/m 0 min 0 min 0,0 UV-I 98 W/m 0,0 km/h (0 Bft)
16.06.2013 19:56 19,1 C 18,4 C 58 % 1015,0 hPa 0,0 l/m 0 min 0 min 0,0 UV-I 97 W/m 0,0 km/h (0 Bft)
16.06.2013 19:58 19,1 C 18,4 C 58 % 1015,0 hPa 0,0 l/m 0 min 0 min 0,0 UV-I 104 W/m 0,0 km/h (0 Bft)
16.06.2013 20:00 19,1 C 18,4 C 57 % 1015,0 hPa 0,0 l/m 0 min 0 min 0,0 UV-I 95 W/m 0,0 km/h (0 Bft)
16.06.2013 20:02 19,1 C 18,4 C 57 % 1015,0 hPa 0,0 l/m 0 min 0 min 0,0 UV-I 83 W/m 0,0 km/h (0 Bft)
16.06.2013 20:06 19,1 C 18,4 C 59 % 1015,2 hPa 0,0 l/m 0 min 0 min 0,0 UV-I 65 W/m 7,7 km/h (2 Bft)
16.06.2013 20:08 19,0 C 18,4 C 60 % 1015,2 hPa 0,0 l/m 0 min 0 min 0,0 UV-I 67 W/m 5,1 km/h (1 Bft)
16.06.2013 20:10 19,0 C 18,4 C 60 % 1015,1 hPa 0,0 l/m 0 min 0 min 0,0 UV-I 63 W/m 7,7 km/h (2 Bft)
16.06.2013 20:12 18,9 C 17,9 C 60 % 1015,1 hPa 0,0 l/m 0 min 0 min 0,0 UV-I 56 W/m 0,0 km/h (0 Bft)
16.06.2013 20:14 18,9 C 17,9 C 61 % 1015,1 hPa 0,0 l/m 0 min 0 min 0,0 UV-I 51 W/m 2,6 km/h (1 Bft)
16.06.2013 20:16 18,8 C 17,9 C 61 % 1014,9 hPa 0,0 l/m 0 min 0 min 0,0 UV-I 46 W/m 2,6 km/h (1 Bft)
16.06.2013 20:18 18,8 C 17,9 C 61 % 1014,9 hPa 0,0 l/m 0 min 0 min 0,0 UV-I 46 W/m 0,0 km/h (0 Bft)
16.06.2013 20:20 18,7 C 17,9 C 61 % 1014,9 hPa 0,0 l/m 0 min 0 min 0,0 UV-I 44 W/m 5,1 km/h (1 Bft)
16.06.2013 20:22 18,7 C 17,9 C 62 % 1014,9 hPa 0,0 l/m 0 min 0 min 0,0 UV-I 42 W/m 7,7 km/h (2 Bft)
16.06.2013 20:24 18,7 C 17,9 C 61 % 1014,9 hPa 0,0 l/m 0 min 0 min 0,0 UV-I 46 W/m 10,3 km/h (2 Bft)
16.06.2013 20:26 18,6 C 17,9 C 62 % 1014,9 hPa 0,0 l/m 0 min 0 min 0,0 UV-I 54 W/m 5,1 km/h (1 Bft)
16.06.2013 20:28 18,6 C 17,9 C 62 % 1014,9 hPa 0,0 l/m 0 min 0 min 0,0 UV-I 60 W/m 7,7 km/h (2 Bft)
16.06.2013 20:30 18,6 C 17,9 C 62 % 1014,9 hPa 0,0 l/m 0 min 0 min 0,0 UV-I 60 W/m 10,3 km/h (2 Bft)
16.06.2013 20:32 18,6 C 17,9 C 63 % 1014,9 hPa 0,0 l/m 0 min 0 min 0,0 UV-I 62 W/m 7,7 km/h (2 Bft)
16.06.2013 20:34 18,6 C 17,9 C 63 % 1014,9 hPa 0,0 l/m 0 min 0 min 0,0 UV-I 72 W/m 0,0 km/h (0 Bft)
16.06.2013 20:36 18,6 C 17,9 C 63 % 1014,9 hPa 0,0 l/m 0 min 0 min 0,0 UV-I 74 W/m 0,0 km/h (0 Bft)
16.06.2013 20:38 18,5 C 17,9 C 63 % 1014,9 hPa 0,0 l/m 0 min 0 min 0,0 UV-I 63 W/m 2,6 km/h (1 Bft)
16.06.2013 20:40 18,5 C 17,9 C 64 % 1014,9 hPa 0,0 l/m 0 min 0 min 0,0 UV-I 56 W/m 7,7 km/h (2 Bft)
16.06.2013 20:42 18,5 C 17,9 C 64 % 1014,8 hPa 0,0 l/m 0 min 0 min 0,0 UV-I 49 W/m 2,6 km/h (1 Bft)
16.06.2013 20:44 18,4 C 17,9 C 64 % 1014,6 hPa 0,0 l/m 0 min 0 min 0,0 UV-I 42 W/m 0,0 km/h (0 Bft)
16.06.2013 20:46 18,4 C 17,3 C 64 % 1014,6 hPa 0,0 l/m 0 min 0 min 0,0 UV-I 37 W/m 10,3 km/h (2 Bft)
16.06.2013 20:48 18,4 C 17,3 C 65 % 1014,6 hPa 0,0 l/m 0 min 0 min 0,0 UV-I 35 W/m 7,7 km/h (2 Bft)
16.06.2013 20:50 18,4 C 17,3 C 65 % 1014,6 hPa 0,0 l/m 0 min 0 min 0,0 UV-I 28 W/m 7,7 km/h (2 Bft)
16.06.2013 20:52 18,3 C 17,3 C 65 % 1014,7 hPa 0,0 l/m 0 min 0 min 0,0 UV-I 26 W/m 2,6 km/h (1 Bft)
16.06.2013 20:54 18,3 C 17,3 C 66 % 1014,7 hPa 0,0 l/m 0 min 0 min 0,0 UV-I 26 W/m 0,0 km/h (0 Bft)
16.06.2013 20:56 18,2 C 17,3 C 66 % 1014,6 hPa 0,0 l/m 0 min 0 min 0,0 UV-I 26 W/m 2,6 km/h (1 Bft)
16.06.2013 20:58 18,2 C 17,3 C 66 % 1014,6 hPa 0,0 l/m 0 min 0 min 0,0 UV-I 26 W/m 0,0 km/h (0 Bft)
16.06.2013 21:00 18,2 C 17,3 C 66 % 1014,5 hPa 0,0 l/m 0 min 0 min 0,0 UV-I 26 W/m 2,6 km/h (1 Bft)
16.06.2013 21:02 18,1 C 17,3 C 66 % 1014,6 hPa 0,0 l/m 0 min 0 min 0,0 UV-I 25 W/m 2,6 km/h (1 Bft)
16.06.2013 21:06 18,0 C 16,8 C 67 % 1014,7 hPa 0,0 l/m 0 min 0 min 0,0 UV-I 23 W/m 0,0 km/h (0 Bft)
16.06.2013 21:08 18,0 C 16,8 C 68 % 1014,6 hPa 0,0 l/m 0 min 0 min 0,0 UV-I 21 W/m 0,0 km/h (0 Bft)
16.06.2013 21:10 17,9 C 16,8 C 67 % 1014,6 hPa 0,0 l/m 0 min 0 min 0,0 UV-I 19 W/m 0,0 km/h (0 Bft)
16.06.2013 21:12 17,9 C 16,8 C 67 % 1014,7 hPa 0,0 l/m 0 min 0 min 0,0 UV-I 21 W/m 0,0 km/h (0 Bft)
16.06.2013 21:14 17,9 C 16,8 C 67 % 1014,7 hPa 0,0 l/m 0 min 2 min 0,0 UV-I 23 W/m 0,0 km/h (0 Bft)
16.06.2013 21:16 17,9 C 16,8 C 67 % 1014,7 hPa 0,0 l/m 0 min 2 min 0,0 UV-I 23 W/m 0,0 km/h (0 Bft)
16.06.2013 21:18 17,9 C 16,8 C 67 % 1014,8 hPa 0,0 l/m 0 min 0 min 0,0 UV-I 23 W/m 0,0 km/h (0 Bft)
16.06.2013 21:20 17,9 C 16,8 C 68 % 1014,7 hPa 0,0 l/m 0 min 2 min 0,0 UV-I 23 W/m 0,0 km/h (0 Bft)
16.06.2013 21:22 17,9 C 16,8 C 68 % 1014,7 hPa 0,0 l/m 0 min 0 min 0,0 UV-I 23 W/m 0,0 km/h (0 Bft)
16.06.2013 21:24 17,9 C 16,8 C 68 % 1014,7 hPa 0,0 l/m 0 min 0 min 0,0 UV-I 23 W/m 0,0 km/h (0 Bft)
16.06.2013 21:26 17,9 C 16,8 C 68 % 1014,7 hPa 0,0 l/m 2 min 0 min 0,0 UV-I 25 W/m 0,0 km/h (0 Bft)
16.06.2013 21:28 17,9 C 16,8 C 68 % 1014,7 hPa 0,0 l/m 2 min 0 min 0,0 UV-I 25 W/m 0,0 km/h (0 Bft)
16.06.2013 21:30 17,9 C 16,8 C 68 % 1014,7 hPa 0,0 l/m 2 min 0 min 0,0 UV-I 23 W/m 0,0 km/h (0 Bft)
16.06.2013 21:32 17,9 C 16,8 C 68 % 1014,7 hPa 0,0 l/m 2 min 0 min 0,0 UV-I 19 W/m 0,0 km/h (0 Bft)
16.06.2013 21:34 17,9 C 16,8 C 68 % 1014,7 hPa 0,0 l/m 0 min 0 min 0,0 UV-I 16 W/m 0,0 km/h (0 Bft)
16.06.2013 21:36 17,9 C 16,8 C 67 % 1014,7 hPa 0,0 l/m 0 min 0 min 0,0 UV-I 14 W/m 0,0 km/h (0 Bft)
16.06.2013 21:38 17,9 C 16,2 C 68 % 1014,7 hPa 0,0 l/m 0 min 0 min 0,0 UV-I 14 W/m 0,0 km/h (0 Bft)
16.06.2013 21:40 17,8 C 16,2 C 68 % 1014,7 hPa 0,0 l/m 0 min 0 min 0,0 UV-I 14 W/m 0,0 km/h (0 Bft)
16.06.2013 21:42 17,8 C 16,2 C 68 % 1014,7 hPa 0,0 l/m 0 min 0 min 0,0 UV-I 11 W/m 0,0 km/h (0 Bft)
16.06.2013 21:44 17,8 C 16,2 C 68 % 1014,7 hPa 0,0 l/m 0 min 0 min 0,0 UV-I 9 W/m 0,0 km/h (0 Bft)
16.06.2013 21:46 17,8 C 16,2 C 68 % 1014,7 hPa 0,0 l/m 0 min 0 min 0,0 UV-I 9 W/m 0,0 km/h (0 Bft)
16.06.2013 21:48 17,8 C 16,2 C 68 % 1014,7 hPa 0,0 l/m 0 min 0 min 0,0 UV-I 7 W/m 0,0 km/h (0 Bft)
16.06.2013 21:50 17,8 C 16,2 C 68 % 1014,7 hPa 0,0 l/m 0 min 0 min 0,0 UV-I 7 W/m 0,0 km/h (0 Bft)
16.06.2013 21:52 17,8 C 16,2 C 68 % 1014,7 hPa 0,0 l/m 0 min 0 min 0,0 UV-I 7 W/m 0,0 km/h (0 Bft)
16.06.2013 21:54 17,7 C 16,2 C 68 % 1014,7 hPa 0,0 l/m 0 min 0 min 0,0 UV-I 5 W/m 0,0 km/h (0 Bft)
16.06.2013 21:56 17,7 C 16,2 C 68 % 1014,8 hPa 0,0 l/m 0 min 0 min 0,0 UV-I 5 W/m 2,6 km/h (1 Bft)
16.06.2013 21:58 17,7 C 16,2 C 68 % 1015,0 hPa 0,0 l/m 0 min 0 min 0,0 UV-I 5 W/m 0,0 km/h (0 Bft)
16.06.2013 22:00 17,7 C 16,2 C 68 % 1014,9 hPa 0,0 l/m 0 min 0 min 0,0 UV-I 0 W/m 0,0 km/h (0 Bft)
16.06.2013 22:02 17,7 C 16,2 C 68 % 1015,1 hPa 0,0 l/m 0 min 0 min 0,0 UV-I 0 W/m 2,6 km/h (1 Bft)
16.06.2013 22:06 17,6 C 15,7 C 68 % 1015,1 hPa 0,0 l/m 0 min 0 min 0,0 UV-I 0 W/m 0,0 km/h (0 Bft)
16.06.2013 22:08 17,6 C 15,7 C 69 % 1015,2 hPa 0,0 l/m 0 min 0 min 0,0 UV-I 0 W/m 0,0 km/h (0 Bft)
16.06.2013 22:10 17,6 C 15,7 C 69 % 1015,3 hPa 0,0 l/m 0 min 0 min 0,0 UV-I 0 W/m 2,6 km/h (1 Bft)
16.06.2013 22:12 17,6 C 15,7 C 69 % 1015,3 hPa 0,0 l/m 0 min 0 min 0,0 UV-I 0 W/m 0,0 km/h (0 Bft)
16.06.2013 22:14 17,5 C 15,7 C 69 % 1015,4 hPa 0,0 l/m 0 min 0 min 0,0 UV-I 0 W/m 0,0 km/h (0 Bft)
16.06.2013 22:16 17,5 C 15,1 C 69 % 1015,6 hPa 0,0 l/m 0 min 0 min 0,0 UV-I 0 W/m 0,0 km/h (0 Bft)
16.06.2013 22:18 17,5 C 15,1 C 69 % 1015,7 hPa 0,0 l/m 0 min 0 min 0,0 UV-I 0 W/m 0,0 km/h (0 Bft)
16.06.2013 22:20 17,4 C 15,1 C 69 % 1015,6 hPa 0,0 l/m 0 min 0 min 0,0 UV-I 0 W/m 0,0 km/h (0 Bft)
16.06.2013 22:22 17,4 C 15,1 C 69 % 1015,6 hPa 0,0 l/m 0 min 0 min 0,0 UV-I 0 W/m 0,0 km/h (0 Bft)
16.06.2013 22:24 17,4 C 15,1 C 69 % 1015,6 hPa 0,0 l/m 0 min 0 min 0,0 UV-I 0 W/m 0,0 km/h (0 Bft)
16.06.2013 22:26 17,3 C 15,1 C 69 % 1015,5 hPa 0,0 l/m 0 min 0 min 0,0 UV-I 0 W/m 0,0 km/h (0 Bft)
16.06.2013 22:28 17,3 C 15,1 C 70 % 1015,4 hPa 0,0 l/m 0 min 0 min 0,0 UV-I 0 W/m 0,0 km/h (0 Bft)
16.06.2013 22:30 17,3 C 15,1 C 70 % 1015,4 hPa 0,0 l/m 0 min 0 min 0,0 UV-I 0 W/m 7,7 km/h (2 Bft)
16.06.2013 22:32 17,2 C 15,7 C 70 % 1015,5 hPa 0,0 l/m 0 min 0 min 0,0 UV-I 0 W/m 2,6 km/h (1 Bft)
16.06.2013 22:34 17,2 C 15,7 C 69 % 1015,6 hPa 0,0 l/m 0 min 0 min 0,0 UV-I 0 W/m 12,9 km/h (3 Bft)
16.06.2013 22:36 17,1 C 15,7 C 69 % 1015,6 hPa 0,0 l/m 0 min 0 min 0,0 UV-I 0 W/m 10,3 km/h (2 Bft)
16.06.2013 22:38 17,1 C 15,7 C 69 % 1015,7 hPa 0,0 l/m 0 min 0 min 0,0 UV-I 0 W/m 7,7 km/h (2 Bft)
16.06.2013 22:40 17,0 C 15,7 C 69 % 1015,7 hPa 0,0 l/m 0 min 0 min 0,0 UV-I 0 W/m 7,7 km/h (2 Bft)
16.06.2013 22:42 16,9 C 15,7 C 69 % 1015,7 hPa 0,0 l/m 0 min 0 min 0,0 UV-I 0 W/m 10,3 km/h (2 Bft)
16.06.2013 22:44 16,9 C 15,7 C 69 % 1015,7 hPa 0,0 l/m 0 min 0 min 0,0 UV-I 0 W/m 10,3 km/h (2 Bft)
16.06.2013 22:46 16,9 C 15,1 C 69 % 1015,7 hPa 0,0 l/m 0 min 0 min 0,0 UV-I 0 W/m 2,6 km/h (1 Bft)
16.06.2013 22:48 16,8 C 15,1 C 69 % 1015,7 hPa 0,0 l/m 0 min 0 min 0,0 UV-I 0 W/m 2,6 km/h (1 Bft)
16.06.2013 22:50 16,8 C 15,1 C 69 % 1015,7 hPa 0,0 l/m 0 min 0 min 0,0 UV-I 0 W/m 0,0 km/h (0 Bft)
16.06.2013 22:52 16,8 C 15,1 C 69 % 1015,7 hPa 0,0 l/m 0 min 0 min 0,0 UV-I 0 W/m 2,6 km/h (1 Bft)
16.06.2013 22:54 16,7 C 15,1 C 69 % 1015,7 hPa 0,0 l/m 0 min 0 min 0,0 UV-I 0 W/m 0,0 km/h (0 Bft)
16.06.2013 22:56 16,7 C 15,1 C 69 % 1015,7 hPa 0,0 l/m 0 min 0 min 0,0 UV-I 0 W/m 0,0 km/h (0 Bft)
16.06.2013 22:58 16,6 C 14,6 C 69 % 1015,7 hPa 0,0 l/m 0 min 0 min 0,0 UV-I 0 W/m 2,6 km/h (1 Bft)
16.06.2013 23:00 16,6 C 14,6 C 69 % 1015,6 hPa 0,0 l/m 0 min 0 min 0,0 UV-I 0 W/m 0,0 km/h (0 Bft)
16.06.2013 23:02 16,5 C 14,6 C 69 % 1015,7 hPa 0,0 l/m 0 min 0 min 0,0 UV-I 0 W/m 2,6 km/h (1 Bft)
16.06.2013 23:06 16,4 C 14,6 C 69 % 1015,6 hPa 0,0 l/m 0 min 0 min 0,0 UV-I 0 W/m 0,0 km/h (0 Bft)
16.06.2013 23:08 16,4 C 14,6 C 69 % 1015,6 hPa 0,0 l/m 0 min 0 min 0,0 UV-I 0 W/m 2,6 km/h (1 Bft)
16.06.2013 23:10 16,4 C 14,6 C 69 % 1015,6 hPa 0,0 l/m 0 min 0 min 0,0 UV-I 0 W/m 5,1 km/h (1 Bft)
16.06.2013 23:12 16,3 C 14,6 C 69 % 1015,6 hPa 0,0 l/m 0 min 0 min 0,0 UV-I 0 W/m 5,1 km/h (1 Bft)
16.06.2013 23:14 16,3 C 14,6 C 69 % 1015,5 hPa 0,0 l/m 0 min 0 min 0,0 UV-I 0 W/m 10,3 km/h (2 Bft)
16.06.2013 23:16 16,2 C 14,6 C 69 % 1015,6 hPa 0,0 l/m 0 min 0 min 0,0 UV-I 0 W/m 5,1 km/h (1 Bft)
16.06.2013 23:18 16,2 C 14,6 C 69 % 1015,6 hPa 0,0 l/m 0 min 0 min 0,0 UV-I 0 W/m 2,6 km/h (1 Bft)
16.06.2013 23:20 16,2 C 14,6 C 70 % 1015,5 hPa 0,0 l/m 0 min 0 min 0,0 UV-I 0 W/m 0,0 km/h (0 Bft)
16.06.2013 23:22 16,1 C 14,6 C 70 % 1015,6 hPa 0,0 l/m 0 min 0 min 0,0 UV-I 0 W/m 0,0 km/h (0 Bft)
16.06.2013 23:24 16,1 C 14,6 C 70 % 1015,6 hPa 0,0 l/m 0 min 0 min 0,0 UV-I 0 W/m 2,6 km/h (1 Bft)
16.06.2013 23:26 16,1 C 14,6 C 70 % 1015,5 hPa 0,0 l/m 0 min 0 min 0,0 UV-I 0 W/m 0,0 km/h (0 Bft)
16.06.2013 23:28 16,0 C 14,6 C 70 % 1015,5 hPa 0,0 l/m 0 min 0 min 0,0 UV-I 0 W/m 0,0 km/h (0 Bft)
16.06.2013 23:30 16,0 C 14,6 C 70 % 1015,5 hPa 0,0 l/m 0 min 0 min 0,0 UV-I 0 W/m 0,0 km/h (0 Bft)
16.06.2013 23:32 15,9 C 14,6 C 70 % 1015,7 hPa 0,0 l/m 0 min 0 min 0,0 UV-I 0 W/m 2,6 km/h (1 Bft)
16.06.2013 23:34 15,9 C 14,6 C 70 % 1015,7 hPa 0,0 l/m 0 min 0 min 0,0 UV-I 0 W/m 0,0 km/h (0 Bft)
16.06.2013 23:36 15,9 C 14,6 C 70 % 1015,6 hPa 0,0 l/m 0 min 0 min 0,0 UV-I 0 W/m 0,0 km/h (0 Bft)
16.06.2013 23:38 15,9 C 14,6 C 70 % 1015,5 hPa 0,0 l/m 0 min 0 min 0,0 UV-I 0 W/m 0,0 km/h (0 Bft)
16.06.2013 23:40 15,8 C 14,6 C 70 % 1015,6 hPa 0,0 l/m 0 min 0 min 0,0 UV-I 0 W/m 2,6 km/h (1 Bft)
16.06.2013 23:42 15,8 C 14,6 C 70 % 1015,6 hPa 0,0 l/m 0 min 0 min 0,0 UV-I 0 W/m 2,6 km/h (1 Bft)
16.06.2013 23:44 15,8 C 14,6 C 70 % 1015,6 hPa 0,0 l/m 0 min 0 min 0,0 UV-I 0 W/m 2,6 km/h (1 Bft)
16.06.2013 23:46 15,8 C 14,6 C 70 % 1015,5 hPa 0,0 l/m 0 min 0 min 0,0 UV-I 0 W/m 0,0 km/h (0 Bft)
16.06.2013 23:48 15,8 C 14,6 C 70 % 1015,6 hPa 0,0 l/m 0 min 0 min 0,0 UV-I 0 W/m 2,6 km/h (1 Bft)
16.06.2013 23:50 15,7 C 14,6 C 70 % 1015,5 hPa 0,0 l/m 0 min 0 min 0,0 UV-I 0 W/m 5,1 km/h (1 Bft)
16.06.2013 23:52 15,7 C 14,6 C 70 % 1015,5 hPa 0,0 l/m 0 min 0 min 0,0 UV-I 0 W/m 5,1 km/h (1 Bft)
16.06.2013 23:54 15,7 C 14,6 C 70 % 1015,6 hPa 0,0 l/m 0 min 0 min 0,0 UV-I 0 W/m 0,0 km/h (0 Bft)
16.06.2013 23:56 15,7 C 14,6 C 70 % 1015,6 hPa 0,0 l/m 0 min 0 min 0,0 UV-I 0 W/m 0,0 km/h (0 Bft)
16.06.2013 23:58 15,7 C 14,6 C 70 % 1015,6 hPa 0,0 l/m 0 min 0 min 0,0 UV-I 0 W/m 0,0 km/h (0 Bft)
_ Min-Zeit 05:32 05:00 15:30 00:00 - - - - - 00:00
Minimum _ 12,1 C 10,7 C 52 % 1014,1 hPa - - - - - 0,0 km/h (0 Bft)
_ Max-Zeit 15:48 13:20 06:24 13:24 00:00 10:20 16:52 15:20 15:42 11:00
Maximum _ 22,6 C 25,1 C 80 % 1015,9 hPa 0,0 l/m 2 min 2 min 5,2 UV-I 1014 W/m 25,7 km/h
S-SO (4 Bft)
Durchschnitt _ 16,6 C 16,5 C 67 % 1015,1 hPa #0,0 l/m #4:20 h #54 min. 2,4 UV-I 280 W/m 5,4 km/h (1 Bft)
© 2013 W. Hausmann